Results by/Résultats par Info:info@sportstats.ca Phone: (613)723-0994

                     
                                   IRONMAN CALGARY 70.3

                                  Sunday August 1st, 2010

                               Calgary, Alberta, 6:10am     

                                      Overall Results
-------FINAL------ ------------------------------ ------------- --- --- --- -------------- -----         1.9 km                           94 km                       21.1km
                                                                            Category              --------SWIM----------  ----- ----------BIKE---------  ----- ---------RUN----------            
    Pos     Time   Name                           City          Sta Cty Rep Plc/Total Cat    #    Cat  Ovr  Time   /100m  Tr1   Cat  Ovr  Time   km/hr   Tr2   Cat  Ovr  Time   /km           
--------  -------- ------------------------------ ------------- --- --- --- -------------- -----  ----------------------  ----- -----------------------  ----- ----------------------         
    1     03:58:45 Doe, Kieran                    RODNEY        AUK NZL       1/20  MPRO      11    4    4   23:15  1:14   2:03   1    1 2:12:11  42.7    1:06   6    6 1:20:12  3:49         
    2     04:02:14 Fleischmann, Brian             COLORADO SPRI CO  USA       2/20  MPRO      16    1    1   23:08  1:14   1:51   8    8 2:16:29  41.3    1:34   4    4 1:19:13  3:46         
    3     04:03:41 Matthews, Paul                 CASUARINA     NSW AUS       3/20  MPRO    1001    5    5   23:17  1:14   1:55   3    3 2:15:15  41.7    1:51   8    9 1:21:25  3:52         
    4     04:04:43 Whyte, Jamie                   AUCKLAND      AUK NZL       4/20  MPRO      12   11   14   24:45  1:19   1:58   5    5 2:15:50  41.5    1:34   7    8 1:20:38  3:50         
    5     04:05:08 Nelson, Kirk                   LONGMONT      CO  USA       5/20  MPRO      15   17   30   27:09  1:26   2:09   6    6 2:16:16  41.4    1:27   2    2 1:18:08  3:43         
    6     04:06:15 Leto, Kyle                     WALNUT CREEK  CA  USA       6/20  MPRO      21    3    3   23:14  1:14   1:54   7    7 2:16:21  41.4    1:16  10   13 1:23:31  3:58         
    7     04:07:16 Curry, Scott                   CALGARY       AB  CAN       7/20  MPRO      20   14   18   24:56  1:19   2:14   2    2 2:14:16  42.0    1:11  12   17 1:24:41  4:01         
    8     04:08:20 Burwash, Grant                 CALGARY       AB  CAN       8/20  MPRO      22   13   17   24:47  1:19   1:57  15   16 2:24:19  39.1    1:25   1    1 1:15:55  3:36         
    9     04:09:43 Wurtele, Trevor                KELOWNA       BC  CAN       9/20  MPRO      17   16   27   27:07  1:26   2:27  12   12 2:20:15  40.2    1:25   3    3 1:18:31  3:44         
   10     04:10:49 Bird, Jon                      CALGARY       AB  CAN      10/20  MPRO      27    2    2   23:14  1:14   2:10  10   10 2:20:03  40.3    1:04  11   16 1:24:20  4:00         
   11     04:11:05 Marcotte, Kyle                 CALGARY       AB  CAN      11/20  MPRO      18   15   22   26:37  1:25   2:23  13   13 2:21:12  39.9    1:32   5    5 1:19:23  3:46         
   12     04:11:59 Caron, Jonathan                PENTICTON     BC  CAN      12/20  MPRO       8    6    6   23:27  1:15   2:11  11   11 2:20:04  40.3    1:25  13   19 1:24:53  4:02         
   13     04:13:24 Symonds, Jeff                  PENTICTON     BC  CAN      13/20  MPRO      23    9   12   24:40  1:18   2:01   9    9 2:19:03  40.6    1:11  14   23 1:26:31  4:06         
   14     04:21:32 Carfrae, Mirinda               BOULDER       CO  USA       1/10  WPRO       1    2   25   27:05  1:26   2:10   2   31 2:30:57  37.4    1:07   1    7 1:20:15  3:49         
   15     04:23:39 Halpin, Brendan                MISSOULA      MT  USA      14/20  MPRO      10   19   46   29:27  1:33   2:48  17   25 2:28:10  38.1    1:11   9   10 1:22:05  3:54         
   16     04:24:27 Herlbauer, Daniel              HALLEIN           AUT       1/21  M18-24   904    1   23   26:41  1:25   2:35   1   17 2:25:28  38.8    1:09   1   28 1:28:37  4:12         
   17     04:24:45 Wurtele, Heather               KELOWNA       BC  CAN       2/10  WPRO       3    3   26   27:05  1:26   2:30   1   23 2:28:05  38.1    1:18   3   22 1:25:49  4:04         
   18     04:26:39 Dumke, Chuck                   MISSOULA      MT  USA       1/87  M40-44   304    5   53   30:28  1:37   3:25   1   24 2:28:06  38.1    1:21   1   12 1:23:22  3:58         
   19     04:27:21 Berg, Chris                    LA JOLLA      CA  USA       1/62  M25-29   610    3   10   24:29  1:18   3:32   3   22 2:27:59  38.1    1:16   6   36 1:30:06  4:17         
   20     04:28:08 Hastings, Stephen              CALGARY       AB  CAN       2/62  M25-29   625    1    8   24:19  1:17   3:45   2   21 2:27:55  38.1    1:12   7   42 1:31:00  4:19         
   21     04:30:09 Corbin, Linsey                 MISSOULA      MT  USA       3/10  WPRO       2    6   41   29:21  1:33   2:22   3   33 2:31:43  37.2    1:19   2   21 1:25:26  4:03         
   22     04:31:09 Hoogland, Tenille Renee        OTTAWA        ON  CAN       4/10  WPRO    1050    1   15   24:45  1:19   2:10   4   41 2:33:08  36.8    1:14   6   34 1:29:55  4:16         
   23     04:31:27 Stackhouse, Todd               BRIDGEPORT    PA  USA       3/62  M25-29   640    2    9   24:21  1:17   3:53   1   20 2:27:54  38.1    1:36   8   48 1:33:44  4:27         
   24     04:31:32 MacKinnon, Chad                FORT MCMURRAY AB  CAN       4/62  M25-29   648    8   62   30:56  1:38   2:44   4   27 2:28:35  38.0    1:15   3   27 1:28:04  4:11         
   25     04:31:57 Fry, Matty                     KELOWNA       BC  CAN      15/20  MPRO      14   18   32   27:35  1:28   2:25  14   15 2:24:02  39.2    1:32  15   67 1:36:25  4:35         
   26     04:33:20 Katelnikoff, Trevor            CALGARY       AB  CAN       1/115 M35-39   202    4   51   30:12  1:36   3:22   2   26 2:28:19  38.0    1:39   2   33 1:29:49  4:16         
   27     04:33:30 Ewashko, Craig                 FORT MCMURRAY AB  CAN       2/87  M40-44   235    1   21   26:36  1:24   3:28   3   40 2:32:52  36.9    1:49   2   29 1:28:47  4:13         
   28     04:34:01 Shypitka, Robert               CALGARY       AB  CAN       2/115 M35-39   224    5   69   31:23  1:40   3:23   3   29 2:30:00  37.6    1:43   1   24 1:27:33  4:09         
   29     04:35:17 Woolstencroft, Frank           CALGARY       AB  CAN       1/76  M30-34    66   47  350   38:42  2:03   4:14   1   19 2:26:34  38.5    1:39   2   15 1:24:10  4:00         
   30     04:36:00 Haddow, Nick                   CALGARY       AB  CAN       5/62  M25-29   604    9   77   31:53  1:41   3:06   9   54 2:36:56  35.9    1:06   1   11 1:23:01  3:57         
   31     04:39:50 Coleman, Matthew               PHILADELPHIA  PA  USA       2/76  M30-34    31    3   35   28:23  1:30   3:28   3   37 2:32:32  37.0    1:47   8   47 1:33:41  4:27         
   32     04:39:52 Fayad, Dalton                  REGINA        SK  CAN       3/115 M35-39   126   22  193   35:30  1:53   4:45   1   14 2:23:24  39.3    2:23   3   49 1:33:53  4:27         
   33     04:40:38 Powell, Mark                   CALGARY       AB  CAN       3/76  M30-34    73   12   84   32:06  1:42   3:10   4   38 2:32:43  36.9    1:32   6   43 1:31:09  4:20         
   34     04:41:24 Maley, Joel                    ST ALBERT     AB  CAN       6/62  M25-29   628   35  332   38:21  2:02   4:14   5   32 2:31:27  37.2    2:33   2   18 1:24:51  4:02         
   35     04:42:18 Wolfe, Colin                   HOUSTON       TX  USA       4/76  M30-34    40   14   98   32:38  1:44   6:15   6   55 2:36:58  35.9    2:20   1   14 1:24:08  4:00         
   36     04:43:00 Hayner, Darren                 CALGARY       AB  CAN       3/87  M40-44   257    6   67   31:12  1:39   3:27   4   49 2:35:54  36.2    1:56   3   38 1:30:32  4:18         
   37     04:44:32 Harrison, Lauren               LOS ALTOS     CA  USA       5/10  WPRO       7    8   63   30:56  1:38   2:34   6   74 2:38:36  35.6    1:28   7   41 1:31:00  4:19         
   38     04:44:34 Poulin, Martin                 COLD LAKE     AB  CAN       5/76  M30-34    54   20  131   33:53  1:47   2:56   8   57 2:37:21  35.8    2:37   3   26 1:27:48  4:10         
   39     04:45:22 Houck, Jason                   ISSAQUAH      WA  USA       6/76  M30-34    72    4   48   29:29  1:34   4:29  11   75 2:38:44  35.5    3:15   4   31 1:29:26  4:15         
   40     04:45:29 McLaughlin, Kyle               CALGARY       AB  CAN       7/76  M30-34   927   32  233   36:15  1:55   3:45   2   34 2:31:44  37.2    1:35   7   44 1:32:12  4:23         
   41     04:45:36 Tessier, Serge                 COCHRANE      AB  CAN       4/115 M35-39  1008    7   73   31:32  1:40   4:00   4   42 2:33:44  36.7    1:22   6   57 1:35:00  4:31         
   42     04:46:08 Madison, Mackenzie             EUGENE        OR  USA       6/10  WPRO    1031    9  205   35:49  1:54   3:28   5   62 2:37:40  35.8    1:29   4   25 1:27:45  4:10         
   43     04:46:21 Dressel, Nathan                SPANAWAY      WA  USA       7/62  M25-29  1023    7   59   30:51  1:38   3:02   7   48 2:34:22  36.5    1:39  10   68 1:36:28  4:35         
   44     04:46:40 Bich, Brian                    DULUTH        MN  USA       4/87  M40-44   310    2   34   28:16  1:30   3:41   2   35 2:31:51  37.1    1:36  12  102 1:41:18  4:49         
   45     04:47:49 Friesen, Les                   STEINBACH     MB  CAN       8/62  M25-29  1024   29  258   36:53  1:57   3:22   8   51 2:35:59  36.2    1:39   5   35 1:29:59  4:16         
   46     04:48:03 Dutton, Simon                  MOOSE JAW     SK  CAN       8/76  M30-34    71   10   79   31:58  1:41   4:03  13   84 2:39:40  35.3    1:35   5   40 1:30:49  4:19         
   47     04:49:06 Rollinson, Ayesha              TORONTO       ON  CAN       7/10  WPRO       9    4   29   27:08  1:26   2:43   9  123 2:45:05  34.2    1:40   8   45 1:32:31  4:24         
   48     04:49:30 Humphrey, Mike                 LETHBRIDGE    AB  CAN       9/76  M30-34    53   17  126   33:44  1:47   4:12   5   45 2:34:05  36.6    2:14  12   58 1:35:16  4:31         
   49     04:50:11 Peaker, Brian                  LONDON        ON  CAN       1/57  M50-54   748    6  184   35:15  1:52   4:07   1   28 2:29:13  37.8    1:51   1   87 1:39:47  4:44         
   50     04:50:40 Timmerman, Garrett             CALGARY       AB  CAN      10/76  M30-34    32    8   71   31:28  1:40   3:34  12   78 2:39:15  35.4    1:38  10   55 1:34:47  4:30         
   51     04:50:52 Wood, Stephen                  CALGARY       AB  CAN       5/87  M40-44   316    3   36   28:24  1:30   3:14   9   76 2:38:57  35.5    2:01  10   79 1:38:18  4:40         
   52     04:51:06 Kozak, Brian                   CALGARY       AB  CAN       1/62  M45-49   682   14  241   36:26  1:56   3:43   1   30 2:30:12  37.5    2:31   5   78 1:38:16  4:40         
   53     04:51:11 Mundell, Mark                  LETHBRIDGE    AB  CAN       5/115 M35-39  1007    3   38   28:56  1:32   3:07  12   70 2:38:03  35.7    1:37  13   86 1:39:30  4:43         
   54     04:51:35 Blanco, Raul                   CALGARY       AB  CAN       6/115 M35-39   193   24  218   35:59  1:54   5:25   5   43 2:33:47  36.7    2:17   4   51 1:34:09  4:28         
   55     04:52:53 Cooper, Ryan                   DALLAS        TX  USA       9/62  M25-29   644   14  144   34:06  1:48   3:29  10   69 2:38:00  35.7    1:22   9   63 1:35:57  4:33         
   56     04:53:03 O'Hara, Erin                   PALMERSTON NO MWT NZL       8/10  WPRO       5    7   43   29:24  1:33   2:21   8  113 2:43:27  34.5    1:29   9   66 1:36:24  4:35         
   57     04:53:05 Blunden, Jamie                 OAKBANK       MB  CAN       6/87  M40-44   281   12  130   33:52  1:47   3:30   6   52 2:36:18  36.1    1:47   9   73 1:37:39  4:38         
   58     04:53:06 Tilley, Kent                   CALGARY       AB  CAN       7/87  M40-44   285    8   86   32:07  1:42   4:50   7   67 2:37:52  35.7    1:38   8   70 1:36:40  4:35         
   59     04:53:15 Lidster, Laird                 BRANDON       MB  CAN       7/115 M35-39   141   36  284   37:23  1:58   3:33   7   47 2:34:19  36.5    2:14   8   61 1:35:48  4:33         
   60     04:53:45 Van Heyst, John                DEWINTON      AB  CAN       2/62  M45-49   715    9  170   34:58  1:51   3:29   2   44 2:33:54  36.6    1:35   7   88 1:39:51  4:44         
   61     04:54:36 Nelson, Conway                 REGINA        SK  CAN       8/115 M35-39   113   25  221   36:02  1:54   3:56   6   46 2:34:13  36.6    1:33  11   82 1:38:54  4:42         
   62     04:54:48 Katelnikoff, Tk                CALGARY       AB  CAN       8/87  M40-44   286   17  194   35:32  1:53   4:08  14  102 2:41:51  34.8    2:35   4   39 1:30:44  4:18         
   63     04:55:05 Pockiak, Derrick               OTTAWA        ON  CAN      11/76  M30-34    57    7   65   31:02  1:38   3:54  15   86 2:39:43  35.3    2:07  13   80 1:38:20  4:40         
   64     04:55:17 Winterdyk, John                CALGARY       AB  CAN       1/28  M55-59   805    3  148   34:10  1:48   4:31   1   89 2:40:21  35.2    1:38   1   54 1:34:38  4:30         
   65     04:55:38 Bymoen, Wayde                  CALGARY       AB  CAN       9/115 M35-39   144    1   19   25:27  1:21   2:59  10   61 2:37:36  35.8    2:22  29  167 1:47:15  5:05         
   66     04:56:08 Garrard, Emma                  PARK CITY     UT  USA       9/10  WPRO       6    5   40   29:20  1:33   2:38  10  208 2:53:16  32.6    1:22   5   32 1:29:35  4:15         
   67     04:56:34 Brule, Terry                   GATINEAU      QC  CAN      10/115 M35-39   216   16  124   33:42  1:47   5:21  13   77 2:39:14  35.4    2:25   9   62 1:35:54  4:33         
   68     04:56:38 Milot, Michelle                CALGARY       AB  CAN       1/47  W30-34   384    2  110   32:58  1:45   3:57   3  147 2:48:07  33.5    1:13   1   37 1:30:26  4:18         
   69     04:58:04 Mackenzie, Brendan             REGINA        SK  CAN      10/62  M25-29   645   10   83   32:04  1:42   2:50  12   95 2:40:50  35.1    1:54  15   92 1:40:27  4:46         
   70     04:58:13 Baade, Ryan                    REGINA        SK  CAN      11/115 M35-39   105    9   78   31:55  1:41   3:08  14   83 2:39:35  35.3    1:33  19  106 1:42:04  4:51         
   71     04:58:25 Binning, Carla                 SHERWOOD PARK AB  CAN       1/37  W25-29   347    5   94   32:29  1:43   2:55   1   79 2:39:18  35.4    1:24   1  109 1:42:21  4:51         
   72     04:58:50 Benetreau, Pierre              SHERWOOD PARK AB  CAN      11/62  M25-29   646   19  173   35:04  1:51   4:03  11   91 2:40:27  35.2    2:15  11   71 1:37:04  4:36         
   73     04:58:53 Joss, Matthew                  CALGARY       AB  CAN       9/87  M40-44   234    4   50   30:08  1:36   3:33  12   90 2:40:26  35.2    1:32  15  119 1:43:16  4:54         
   74     04:59:02 Grozelle, Jay                  FORT MCMURRAY AB  CAN      12/76  M30-34    65   18  127   33:46  1:47   3:35  10   66 2:37:52  35.7    2:52  18   98 1:41:00  4:48         
   75     04:59:13 Nebbe, Brian                   SHERWOOD PARK AB  CAN       3/62  M45-49   670   25  347   38:40  2:03   5:19   3   58 2:37:27  35.8    2:07   2   60 1:35:42  4:33         
   76     04:59:30 Limbeek, Brent                 VICTORIA      BC  CAN      12/62  M25-29  1022   16  156   34:22  1:49   3:32   6   36 2:32:04  37.1    1:53  24  171 1:47:42  5:07         
   77     05:00:23 Hardy, Robert                  PRINCE GEORGE BC  CAN       4/62  M45-49  1026   11  192   35:29  1:53   6:51  14  188 2:51:29  32.9    1:33   1   20 1:25:03  4:02         
   78     05:00:28 Heneghan, Paul                 DUBLIN            IRL      13/76  M30-34    45   65  538   42:38  2:15   3:41   9   63 2:37:43  35.8    1:39  11   56 1:34:49  4:30         
   79     05:01:12 Anderson, Travis               EDMONTON      AB  CAN      14/76  M30-34    87   19  129   33:50  1:47   4:19   7   56 2:37:02  35.9    1:58  26  126 1:44:04  4:56         
   80     05:01:45 Moody, Ryan                    THUNDER BAY   ON  CAN      15/76  M30-34    81   15  104   32:53  1:44   4:49  16   93 2:40:33  35.1    2:28  19   99 1:41:03  4:48         
   81     05:01:50 Sohor, Davis                   WINNIPEG      MB  CAN       2/21  M18-24   592    4  128   33:48  1:47   4:40   3   64 2:37:49  35.7    1:24   3  129 1:44:11  4:57         
   82     05:02:28 Van Rooyen, Hugo               REGINA        SK  CAN      16/76  M30-34    39    5   49   29:50  1:35   4:51  14   85 2:39:43  35.3    3:16  28  136 1:44:50  4:59         
   83     05:02:47 Maillet, Berard                CHESTERMERE   AB  CAN       5/62  M45-49   722    2   56   30:34  1:37   4:32   4   65 2:37:50  35.7    1:49  11  176 1:48:04  5:08         
   84     05:03:28 Roberts, Neil                  EDMONTON      AB  CAN      13/62  M25-29   613   21  182   35:13  1:52   3:45  14  130 2:45:50  34.0    1:31  12   72 1:37:11  4:37         
   85     05:03:34 Gama, Armando                  MISSOULA      MT  USA       6/62  M45-49   680   10  179   35:09  1:51   4:48   7  106 2:42:10  34.8    2:37   6   81 1:38:53  4:42         
   86     05:03:53 Heinze, Kim                    CALGARY       AB  CAN       7/62  M45-49   706   24  342   38:31  2:02   5:07   6   87 2:39:52  35.3    2:45   3   74 1:37:41  4:38         
   87     05:04:50 Alexander, Nathalie            VIENNA            AUT       1/16  W18-24   323    6  155   34:20  1:49   3:13   1  110 2:42:50  34.6    1:44   1  112 1:42:44  4:53         
   88     05:05:32 Miranda, Liza                  SHERWOOD PARK AB  CAN       1/63  W35-39   465   19  301   37:36  1:59   4:38   1   60 2:37:32  35.8    1:33   2  130 1:44:14  4:57         
   89     05:05:49 Ash, Patrick                   REGINA        SK  CAN      17/76  M30-34    86    9   74   31:34  1:40   3:26  22  139 2:47:00  33.8    2:35  20  100 1:41:16  4:48         
   90     05:05:54 Pedersen, Kent                 DAWSON CREEK  BC  CAN      10/87  M40-44   305   36  318   37:58  2:00   5:07   8   71 2:38:08  35.7    1:32  14  118 1:43:11  4:54         
   91     05:06:13 Gaskill, Megan                 MISSOULA      MT  USA      10/10  WPRO       4   10  320   37:59  2:00   3:14   7   80 2:39:24  35.4    2:37  10  116 1:43:01  4:53         
   92     05:06:29 Vanderburg, Chris              BIG WHITE SKI BC  CAN      12/115 M35-39   109    6   72   31:31  1:40   3:35  15   92 2:40:31  35.1    1:40  36  190 1:49:15  5:11         
   93     05:06:30 Papke, Joshua                  ST. ALBERT    AB  CAN      18/76  M30-34    83   31  226   36:07  1:55   4:22  17   96 2:41:16  35.0    1:26  24  121 1:43:20  4:54         
   94     05:06:48 Forman, Simon                  CALGARY       AB  CAN      13/115 M35-39   219   69  498   41:44  2:12   4:49  18  100 2:41:40  34.9    2:28  10   64 1:36:08  4:34         
   95     05:07:23 Iwabuchi, Hiroshi              CALGARY       AB  CAN       8/62  M45-49   714   15  264   37:01  1:57   4:26   9  124 2:45:12  34.1    2:34   4   77 1:38:13  4:40         
   96     05:07:58 Austin, Nick                   CALGARY       AB  CAN      19/76  M30-34    63   13   85   32:06  1:42   5:10  23  144 2:47:49  33.6    3:25  14   85 1:39:29  4:43         
   97     05:08:02 Batista, Elice                 BRASILIA          BRA      11/87  M40-44   298   18  197   35:41  1:53   4:53  10   81 2:39:29  35.4    2:50  17  140 1:45:12  5:00         
   98     05:08:09 Bustamante, Giovanni           CALGARY       AB  CAN      14/115 M35-39   146    2   28   27:07  1:26   3:44  43  230 2:55:33  32.1    1:54  15   90 1:39:53  4:44         
   99     05:08:33 Murphy, Jerry                  EDMONTON      AB  CAN       2/57  M50-54   734    8  187   35:22  1:52   4:36   6  114 2:43:42  34.5    2:39   2  107 1:42:15  4:51         
  100     05:08:34 Ernsting, Susie                NORTH VANCOUV BC  CAN       2/37  W25-29   754    2   39   29:03  1:32   3:39   2  153 2:48:43  33.4    1:27   5  148 1:45:44  5:01         
  101     05:08:39 Chartrand, Jared               VANCOUVER     BC  CAN      20/76  M30-34    88   29  213   35:55  1:54   5:13  21  125 2:45:15  34.1    1:30  16   96 1:40:48  4:47         
  102     05:08:47 Giesbrecht, Dean               CALGARY       AB  CAN      12/87  M40-44   302   33  296   37:32  1:59   6:15  13   98 2:41:21  35.0    2:24  11  101 1:41:18  4:49         
  103     05:09:02 Tait, Andrew                   FORT ST. JAME BC  CAN      15/115 M35-39   217   63  468   40:55  2:10   5:22   8   53 2:36:50  36.0    2:18  21  123 1:43:40  4:55         
  104     05:09:16 Sellers, Steve                 CANMORE       AB  CAN       3/57  M50-54   737   16  322   38:05  2:01   4:06   4   97 2:41:17  35.0    2:35   3  120 1:43:16  4:54         
  105     05:09:45 Bandol, Emanuela               REGINA        SK  CAN       2/47  W30-34   376    1   64   30:57  1:38   3:38   1  116 2:44:08  34.4    1:55   7  188 1:49:09  5:11         
  106     05:09:46 Fediuk, Dale                   KAILUA-KONA   HI  USA      21/76  M30-34    58    6   58   30:50  1:38   2:45  18  101 2:41:50  34.9    1:57  35  229 1:52:25  5:20         
  107     05:09:50 Boucher, Denis                 CANDIAC       QC  CAN      22/76  M30-34   102   27  206   35:50  1:54   8:13  19  112 2:43:10  34.6    2:37  15   91 1:40:01  4:45         
  108     05:10:01 Schwan, Mark                   CANMORE       AB  CAN      16/115 M35-39   365   23  215   35:57  1:54   4:14  11   68 2:37:54  35.7    2:19  39  199 1:49:39  5:12         
  109     05:10:16 Sarantis, Ari                  CALGARY       AB  CAN      13/87  M40-44   225   34  304   37:40  1:59   5:53  26  172 2:50:06  33.2    2:30   6   52 1:34:09  4:28         
  110     05:10:20 Graham, Todd                   REGINA        SK  CAN      17/115 M35-39   212   10   80   32:00  1:42   4:13  26  134 2:46:21  33.9    1:54  24  150 1:45:53  5:02         
  111     05:11:09 Brisbin, Lisa                  SHERWOOD PARK AB  CAN       2/63  W35-39   451    8  122   33:31  1:46   3:54   5  185 2:51:22  32.9    1:53   1   93 1:40:31  4:46         
  112     05:11:25 Gaulin, Myles                  CALGARY       AB  CAN       4/57  M50-54   729    9  208   35:52  1:54   4:20   5  104 2:41:57  34.8    2:32   6  162 1:46:47  5:04         
  113     05:11:28 Hallatt, Peter                 HAMILTON          BMU      14/62  M25-29   647    4   24   26:43  1:25   3:49  13  119 2:44:22  34.3    2:32  29  262 1:54:04  5:25         
  114     05:12:17 MacKenzie, Doug                REGINA BEACH  SK  CAN       5/57  M50-54   768    1   89   32:16  1:42   4:57   2   72 2:38:21  35.6    3:05  16  254 1:53:40  5:24         
  115     05:12:44 Pachal, Jeff                   REGINA        SK  CAN      18/115 M35-39   128   45  329   38:15  2:01   4:58  17   99 2:41:25  34.9    2:59  22  139 1:45:08  4:59         
  116     05:12:52 Johnson, Jeff                  EDMONTON      AB  CAN      14/87  M40-44   274   57  492   41:34  2:12   3:47   5   50 2:35:56  36.2    2:06  21  198 1:49:31  5:12         
  117     05:12:54 Brown, Michael                 ST. ALBERT    AB  CAN      19/115 M35-39   158    8   75   31:39  1:40   3:56  24  127 2:45:40  34.0    2:22  38  194 1:49:19  5:11         
  118     05:13:33 Back, Jordan                   NORTH VANCOUV BC  CAN      15/62  M25-29   637   27  228   36:10  1:55   5:52  17  190 2:52:03  32.8    1:40  13   76 1:37:50  4:39         
  119     05:13:41 Poehlmann, Mike                CALGARY       AB  CAN       6/57  M50-54   761    5  175   35:05  1:51   5:05   7  121 2:44:38  34.3    2:19   5  159 1:46:35  5:04         
  120     05:14:01 Baker, Kris                    EDMONTON      AB  CAN       3/47  W30-34   361    4  115   33:15  1:45   3:42   4  195 2:52:16  32.7    1:49   2  117 1:43:01  4:53         
  121     05:14:02 Hrynkow, Brian                 SHERWOOD PARK AB  CAN       3/21  M18-24   582    6  167   34:53  1:51   5:51   2   39 2:32:46  36.9    2:02   9  319 1:58:32  5:38         
  122     05:14:29 Wilson, Lanny                  CALGARY       AB  CAN       9/62  M45-49   696    3   61   30:54  1:38   4:46   8  120 2:44:26  34.3    1:40  17  236 1:52:45  5:21         
  123     05:14:38 Graul, Peter                   CANMORE       AB  CAN      20/115 M35-39  1012   15  108   32:57  1:45   4:57  28  141 2:47:19  33.7    2:02  30  169 1:47:24  5:06         
  124     05:14:40 Larter, Alan                   CALGARY       AB  CAN       7/57  M50-54   780    2   96   32:32  1:43   4:33   3   82 2:39:30  35.4    2:05  19  290 1:56:03  5:30         
  125     05:14:43 Semler, Wes                    WHITECOURT    AB  CAN      23/76  M30-34   916   41  292   37:30  1:59   3:57  39  264 2:57:48  31.7    1:37   9   50 1:33:53  4:27         
  126     05:14:47 Jackson, Kevin                 EDMONTON      AB  CAN      16/62  M25-29   608   24  210   35:53  1:54   4:21  15  138 2:46:55  33.8    2:21  19  142 1:45:20  5:00         
  127     05:15:01 Banmann, Aaron                 EDMONTON      AB  CAN       4/21  M18-24   596   11  273   37:09  1:58   3:58   4  108 2:42:34  34.7    2:00   6  196 1:49:22  5:11         
  128     05:15:46 Greenwood, Jim                 REGINA        SK  CAN      15/87  M40-44   232   49  424   39:56  2:07   4:36  34  233 2:55:41  32.1    2:07   5   46 1:33:28  4:26         
  129     05:15:49 Seltner, Kai                   CALGARY       AB  CAN       5/21  M18-24   586    3   57   30:40  1:37   4:29   7  161 2:49:43  33.2    2:08   5  185 1:48:51  5:10         
  130     05:15:50 Smelquist, Evan                CAMROSE       AB  CAN      24/76  M30-34    79   52  399   39:25  2:05   5:35  20  115 2:43:52  34.4    1:41  29  141 1:45:19  5:00         
  131     05:16:04 Sloman, Glenn                  SHERWOOD PARK AB  CAN      16/87  M40-44   233   54  441   40:11  2:07   4:08  22  146 2:48:05  33.6    1:39  13  105 1:42:03  4:51         
  132     05:16:11 Bundy, Doug                    CALGARY       AB  CAN       2/28  M55-59   820    4  150   34:12  1:48   5:31   2  142 2:47:32  33.7    2:36   3  157 1:46:22  5:03         
  133     05:16:25 Wallis, Kevin                  CANMORE       AB  CAN      21/115 M35-39   204   21  191   35:28  1:52   5:12  16   94 2:40:49  35.1    1:51  50  246 1:53:07  5:22         
  134     05:17:07 Cerbu, Monica                  CALGARY       AB  CAN       1/34  W40-44   481    2  112   33:09  1:45   5:12   6  284 2:59:11  31.5    1:53   1   75 1:37:44  4:38         
  135     05:17:53 Olivier, Ryan                  CALGARY       AB  CAN      25/76  M30-34    34   38  277   37:15  1:58   3:37  33  215 2:54:12  32.4    1:28  21  103 1:41:22  4:49         
  136     05:18:11 Goss, Decker                   BUTTE         MT  USA      17/62  M25-29   616   47  621   44:39  2:21   6:05  19  216 2:54:14  32.4    3:50   4   30 1:29:25  4:15         
  137     05:18:52 Fletcher, Richard              GRANDE PRAIRI AB  CAN      17/87  M40-44   258   14  146   34:09  1:48   4:53  16  109 2:42:39  34.7    3:11  29  261 1:54:02  5:25         
  138     05:19:14 Lawrence, James                LINDON        UT  USA      26/76  M30-34    99   21  136   33:56  1:48   3:31  31  181 2:51:02  33.0    1:35  31  189 1:49:11  5:11         
  139     05:19:17 Liversidge, Cath               FERNIE        BC  CAN       2/34  W40-44   496    1   44   29:25  1:33   3:36   5  271 2:58:34  31.6    1:31   3  155 1:46:13  5:03         
  140     05:20:01 Doucette, Phil                 CALGARY       AB  CAN      22/115 M35-39   107  108  752   52:41  2:47   5:03  23  122 2:45:02  34.2    2:41   5   53 1:34:37  4:30         
  141     05:21:01 Fraser, Hughie                 CALGARY       AB  CAN      27/76  M30-34    49   43  331   38:19  2:01   6:32  26  163 2:49:50  33.2    1:54  27  135 1:44:29  4:58         
  142     05:21:02 Skelton, David                 CALGARY       AB  CAN      10/62  M45-49   695   32  451   40:25  2:08   4:04   5   73 2:38:34  35.6    2:09  23  285 1:55:53  5:30         
  143     05:21:05 Malone, Garrick                HOUSTON       TX  USA      18/62  M25-29   657    6   54   30:31  1:37   4:08  24  272 2:58:36  31.6    2:19  20  147 1:45:33  5:01         
  144     05:21:08 Wiens, Stan                    CALGARY       AB  CAN      11/62  M45-49   671    4  132   33:53  1:47   4:59  11  165 2:49:55  33.2    1:33  14  213 1:50:49  5:16         
  145     05:21:17 Mowbray, Jim                   CALGARY       AB  CAN      19/62  M25-29   618    5   45   29:27  1:33   4:23  20  218 2:54:15  32.4    4:44  26  180 1:48:31  5:09         
  146     05:21:38 Sanders, Jenny                 VANCOUVER     BC  CAN       3/37  W25-29   363    8  113   33:12  1:45   4:06   6  252 2:56:49  31.9    2:12   4  144 1:45:22  5:00         
  147     05:21:47 Peet, Robby                    SPRUCE GROVE  AB  CAN      23/115 M35-39   147   38  308   37:42  2:00   6:01  39  213 2:53:56  32.4    4:19  14   89 1:39:52  4:44         
  148     05:21:55 Fix, Tim                       CRANBROOK     BC  CAN      24/115 M35-39   200   26  227   36:08  1:55  10:07  25  132 2:46:10  33.9    2:47  28  160 1:46:44  5:04         
  149     05:22:05 Donovan, David                 CALGARY       AB  CAN      25/115 M35-39   150   86  601   44:18  2:20   4:38   9   59 2:37:27  35.8    2:32  51  247 1:53:12  5:22         
  150     05:22:08 Amon, Rena                     CALGARY       AB  CAN       4/47  W30-34   390   39  692   47:08  2:29   3:48   2  128 2:45:42  34.0    1:27   3  127 1:44:05  4:56         
  151     05:22:11 Milner, Guy                    EDMONTON      AB  CAN       8/57  M50-54   755   20  344   38:38  2:02   6:46   9  137 2:46:45  33.8    2:54   7  165 1:47:11  5:05         
  152     05:22:20 Kroupa, George                 WINNIPEG      MB  CAN      18/87  M40-44   295   38  330   38:16  2:01   3:53  11   88 2:40:15  35.2    2:10  32  307 1:57:47  5:35         
  153     05:22:28 Webster, Cameron               CALGARY       AB  CAN      19/87  M40-44   294   25  230   36:11  1:55   5:12  25  167 2:49:58  33.2    5:03  18  152 1:46:06  5:02         
  154     05:22:32 Sudoh, Ann                     DULUTH        MN  USA       3/63  W35-39   476    2   70   31:23  1:40   5:36   6  191 2:52:04  32.8    2:01   8  220 1:51:30  5:18         
  155     05:22:36 Kokolski, Kelly                EDMONTON      AB  CAN      20/62  M25-29   622   28  238   36:19  1:55   5:56  16  166 2:49:56  33.2    3:14  23  166 1:47:13  5:05         
  156     05:22:38 Back, Shannon                  NORTH VANCOUV BC  CAN       4/37  W25-29   352   15  242   36:26  1:56   3:18   4  221 2:54:27  32.3    1:31   6  163 1:46:58  5:05         
  157     05:22:43 Roa, Joey                      CALGARY       AB  CAN      26/115 M35-39   199   90  631   44:59  2:23   4:50  31  157 2:48:52  33.4    4:46  12   84 1:39:18  4:43         
  158     05:22:47 Desireau, Anna                 KAMLOOPS      BC  CAN       1/24  W45-49   519    5  244   36:29  1:56   3:34   1  170 2:50:06  33.2    2:02   1  210 1:50:38  5:15         
  159     05:23:15 Lepik, Chris                   TORONTO       ON  CAN      20/87  M40-44  1014   10   93   32:28  1:43   4:39  27  180 2:50:51  33.0    2:32  26  238 1:52:46  5:21         
  160     05:23:29 Bruni, Amanda                  CALGARY       AB  CAN       5/37  W25-29   344    1   37   28:48  1:31   3:13   7  254 2:56:50  31.9    1:43   8  245 1:52:57  5:22         
  161     05:23:33 Hoogenboom, Shane              CALGARY       AB  CAN      27/115 M35-39   185   53  405   39:33  2:05   4:25  27  135 2:46:28  33.9    1:42  47  219 1:51:26  5:17         
  162     05:23:43 Metcalf, Mark                  CALGARY       AB  CAN      28/115 M35-39   122   18  142   34:05  1:48   6:21  38  198 2:52:32  32.7    2:33  32  177 1:48:14  5:08         
  163     05:23:48 Johannson, Doug                CALGARY       AB  CAN      12/62  M45-49   678   30  400   39:26  2:05   4:55  16  196 2:52:16  32.7    2:48   9  133 1:44:23  4:57         
  164     05:23:56 Lindholm, Carol                CALGARY       AB  CAN       1/19  W50-54   544    1  141   34:02  1:48   5:27   1  199 2:52:35  32.7    2:38   1  191 1:49:15  5:11         
  165     05:23:56 Larabie, Jocelyn               GATINEAU      QC  CAN      29/115 M35-39   162   33  262   37:00  1:57   4:47  34  175 2:50:21  33.1    1:47  40  202 1:50:04  5:13         
  166     05:24:01 Gladdish, Bryce                PRINCE GEORGE BC  CAN      21/62  M25-29   908   18  171   34:59  1:51   4:44  25  291 2:59:38  31.4    1:51  16  114 1:42:50  4:53         
  167     05:24:06 Cote, Richard                  CALGARY       AB  CAN      28/76  M30-34    93   23  149   34:10  1:48   3:36  46  358 3:03:51  30.7    1:35  17   97 1:40:57  4:48         
  168     05:24:33 Boyd, Suzanne                  CALGARY       AB  CAN       4/63  W35-39   414    3  106   32:55  1:44   3:56  12  227 2:55:08  32.2    1:50   7  211 1:50:46  5:15         
  169     05:24:33 Dalsin, Doug                   SHERWOOD PARK AB  CAN       9/57  M50-54   766   12  231   36:12  1:55   4:44  10  148 2:48:10  33.5    2:35  14  242 1:52:53  5:21         
  170     05:24:43 Gurney, Dean                   ROSEAU RIVER  MB  CAN      30/115 M35-39   192   35  281   37:20  1:58   5:11  37  193 2:52:09  32.8    3:37  27  158 1:46:27  5:03         
  171     05:24:57 Forrest, Scott                 PRINCE GEORGE BC  CAN      10/57  M50-54  1029   19  339   38:24  2:02   5:14   8  131 2:45:54  34.0    2:54  12  233 1:52:34  5:21         
  172     05:24:59 Carscadden, Kevin              RED DEER      AB  CAN      31/115 M35-39   169   11   87   32:08  1:42   3:57  45  235 2:55:51  32.1    1:40  46  217 1:51:25  5:17         
  173     05:25:21 Francis, Paul                  BRANDON       MB  CAN      21/87  M40-44   311   29  266   37:02  1:57   5:36  23  154 2:48:46  33.4    3:48  22  204 1:50:11  5:14         
  174     05:25:26 Jones, Janet                   CALGARY       AB  CAN       5/63  W35-39   438   25  345   38:38  2:02   6:36   4  178 2:50:41  33.0    1:42   4  172 1:47:51  5:07         
  175     05:25:32 Harrison, Roger                RED DEER      AB  CAN      22/87  M40-44   246    7   76   31:53  1:41   3:26  19  136 2:46:42  33.8    3:27  37  336 2:00:06  5:42         
  176     05:25:33 Dyment, Geoff                  CALGARY       AB  CAN      32/115 M35-39   142   60  444   40:17  2:08   6:42  40  219 2:54:17  32.4    3:35  16   94 1:40:43  4:47         
  177     05:25:46 Lowry, Elaine                  CALGARY       AB  CAN       2/24  W45-49   518    2  107   32:56  1:44   3:33   3  224 2:54:45  32.3    1:57   3  234 1:52:37  5:21         
  178     05:25:49 Baker, Nathan                  CALGARY       AB  CAN      22/62  M25-29   652   26  223   36:05  1:54   8:33  26  301 3:00:18  31.3    1:54  14   83 1:39:01  4:42         
  179     05:25:52 Doupovec, Daniel               CALGARY       AB  CAN      33/115 M35-39   138   99  698   47:34  2:31   9:07  36  189 2:51:52  32.8    1:51   7   59 1:35:31  4:32         
  180     05:25:54 Slessor, Bradley               SHERWOOD PARK AB  CAN      23/62  M25-29   653   22  196   35:35  1:53   6:41  21  234 2:55:46  32.1    3:26  18  134 1:44:28  4:58         
  181     05:25:58 Middleton, Alex                FORT MCMURRAY AB  CAN      29/76  M30-34   180    1   20   25:28  1:21   4:41  44  337 3:02:22  30.9    1:43  34  223 1:51:45  5:18         
  182     05:26:24 Kokonas, George                REGINA        SK  CAN      23/87  M40-44   269   72  658   45:59  2:26   7:33  17  126 2:45:33  34.1    3:02  16  131 1:44:19  4:57         
  183     05:26:25 Demczuk, Gina                  CALGARY       AB  CAN       2/16  W18-24   329    1   47   29:28  1:34   2:53   3  292 2:59:42  31.4    1:27   3  243 1:52:56  5:22         
  184     05:26:47 Dawson, Zoe                    ADELAIDE      SA  AUS       3/16  W18-24   333   11  386   39:14  2:04   4:11   2  228 2:55:21  32.2    2:00   2  151 1:46:03  5:02         
  185     05:26:53 Hewitt, Patrick                RED DEER      AB  CAN      24/87  M40-44   247   31  278   37:16  1:58   4:13  36  255 2:57:04  31.9    2:06  19  156 1:46:16  5:03         
  186     05:27:02 Therrien, David                EDMONTON      AB  CAN       6/21  M18-24   595   12  279   37:18  1:58   7:06  11  357 3:03:47  30.7    2:36   2   65 1:36:16  4:34         
  187     05:27:06 Sobering, Darryl               BILLINGS      MT  USA      30/76  M30-34   101   56  439   40:11  2:07   4:35  32  182 2:51:09  33.0    1:54  32  195 1:49:19  5:11         
  188     05:27:16 Bavin, Ryan                    INVERMERE     BC  CAN      34/115 M35-39   154   17  135   33:55  1:48   5:21  48  245 2:56:33  31.9    2:11  37  192 1:49:18  5:11         
  189     05:27:23 Hebblewhite, Mark              MISSOULA      MT  USA      35/115 M35-39   179   81  566   43:14  2:17   4:59  21  117 2:44:15  34.3    4:02  44  214 1:50:55  5:16         
  190     05:27:26 Souchereau, Carl               CALGARY       AB  CAN      13/62  M45-49   688    1   52   30:25  1:37   5:08  20  265 2:57:54  31.7    2:26  15  222 1:51:35  5:18         
  191     05:27:32 Naphin, Mark                   CALGARY       AB  CAN      36/115 M35-39   120   19  145   34:07  1:48   4:27  47  242 2:56:17  32.0    2:39  41  203 1:50:04  5:13         
  192     05:27:34 Dunagan, Clarence              NORTH LAS VEG NV  USA      37/115 M35-39   187   31  254   36:44  1:56   5:12  33  160 2:49:22  33.3    2:02  56  267 1:54:17  5:25         
  193     05:27:38 Light, Zoe                     VICTORIA      BC  CAN       6/37  W25-29   362    3   42   29:23  1:33   4:55   3  158 2:48:58  33.4    1:33  14  377 2:02:51  5:50         
  194     05:27:49 Johnson, Brent                 CALGARY       AB  CAN      31/76  M30-34    89   58  443   40:17  2:08   4:31  40  266 2:58:00  31.7    2:13  23  115 1:42:50  4:53         
  195     05:27:49 Goodsell, Ian                  CALGARY       AB  CAN      25/87  M40-44  1036   11  100   32:40  1:44   4:25  32  214 2:54:10  32.4    2:22  30  265 1:54:15  5:25         
  196     05:27:55 Kokolski, Abigail              EDMONTON      AB  CAN       7/37  W25-29   341   14  229   36:11  1:55   6:31   8  298 3:00:04  31.3    2:35   2  111 1:42:35  4:52         
  197     05:28:02 Peverett, Mark                 CALGARY       AB  CAN      38/115 M35-39   195   28  243   36:27  1:56   5:12  46  236 2:56:10  32.0    2:23  31  173 1:47:52  5:07         
  198     05:28:08 Richardson, Jerry              CALGARY       AB  CAN      14/62  M45-49   707   17  282   37:20  1:58   5:51  22  275 2:58:50  31.5    2:07   8  124 1:44:01  4:56         
  199     05:28:32 Zahara, Ryan Zahara            CALGARY       AB  CAN      32/76  M30-34    64   11   82   32:02  1:42   5:09  50  382 3:05:35  30.4    2:27  25  122 1:43:21  4:54         
  200     05:28:37 Banderk, Dave                  CALGARY       AB  CAN      39/115 M35-39   119   74  533   42:32  2:15   5:38  22  118 2:44:20  34.3    3:13  49  244 1:52:56  5:22         
  201     05:29:07 Edwards, James                 CALGARY       AB  CAN      15/62  M45-49   672    7  152   34:14  1:49   5:10  18  222 2:54:27  32.3    2:28  19  241 1:52:50  5:21         
  202     05:29:21 Dobson, Sarah                  WINTERS       CA  USA       8/37  W25-29  1018   23  504   41:54  2:13   5:40   5  240 2:56:15  32.0    2:46   3  113 1:42:48  4:53         
  203     05:29:22 Cozine, Kelly                  REGINA        SK  CAN      40/115 M35-39   152   42  323   38:05  2:01   7:18  57  280 2:59:04  31.5    2:41  20  108 1:42:16  4:51         
  204     05:29:32 Binda, Jeff                    CALGARY       AB  CAN      24/62  M25-29   626   15  151   34:13  1:49   4:05  33  372 3:04:55  30.5    2:18  17  125 1:44:04  4:56         
  205     05:30:08 Carlson, Darwin                CALGARY       AB  CAN      33/76  M30-34    70   45  343   38:32  2:02   4:27  24  149 2:48:11  33.5    1:46  42  301 1:57:15  5:34         
  206     05:30:42 Sunderji, Faizel               CALGARY       AB  CAN      41/115 M35-39   156   54  408   39:39  2:06   6:07  42  226 2:55:00  32.2    4:07  23  149 1:45:51  5:01         
  207     05:30:52 Hines, Corey                   FORT MCMURRAY AB  CAN      26/87  M40-44   271    9   88   32:10  1:42   4:10  18  129 2:45:43  34.0    3:10  49  421 2:05:41  5:58         
  208     05:31:47 Runke, Jennifer                CALGARY       AB  CAN       5/47  W30-34   387   14  334   38:22  2:02   4:13   5  273 2:58:38  31.6    1:38   6  186 1:48:59  5:10         
  209     05:31:48 Sackney, Nolan                 CALGARY       AB  CAN      27/87  M40-44   242   19  199   35:42  1:53   4:05  24  162 2:49:46  33.2    4:11  33  312 1:58:06  5:36         
  210     05:32:04 Morin, Marc                    CALGARY       AB  CAN      42/115 M35-39   121  110  759   53:16  2:49   7:00  29  151 2:48:29  33.5    2:35  17   95 1:40:46  4:47         
  211     05:32:20 Humnycki, Selina               CALGARY       AB  CAN       3/34  W40-44   492    9  295   37:31  1:59   5:33   7  310 3:00:48  31.2    3:07   2  143 1:45:22  5:00         
  212     05:32:48 Churchill, Lorraine            CALGARY       AB  CAN       6/63  W35-39   468   13  216   35:57  1:54   4:32  10  206 2:53:12  32.6    1:58  13  300 1:57:11  5:34         
  213     05:33:05 Kreuger, Mike                  CALGARY       AB  CAN      43/115 M35-39   186   43  324   38:07  2:01   5:09  19  103 2:41:55  34.8    2:13  73  422 2:05:43  5:58         
  214     05:33:07 Lawson, Brent                  FORT MCMURRAY AB  CAN      28/87  M40-44   276   41  353   38:43  2:03   5:35  30  209 2:53:30  32.5    2:37  25  235 1:52:45  5:21         
  215     05:33:21 Miller, Ben                    GILBERT       AZ  USA      44/115 M35-39   153   30  250   36:38  1:56   6:03  20  107 2:42:18  34.8    2:49  71  417 2:05:34  5:58         
  216     05:33:23 Bichsel, Stefanie              CALGARY       AB  CAN       7/63  W35-39   437    7  121   33:26  1:46   5:11  17  353 3:03:30  30.7    2:32   5  184 1:48:46  5:10         
  217     05:33:41 Miller, Lisa                   GILBERT       AZ  USA       8/63  W35-39   460   31  453   40:27  2:08   6:12  11  210 2:53:39  32.5    4:07   6  193 1:49:18  5:11         
  218     05:33:43 Redell, Michael                ROCKFORD      MI  USA      25/62  M25-29   906   34  312   37:47  2:00   6:59  23  257 2:57:20  31.8    3:01  27  181 1:48:38  5:09         
  219     05:33:47 Wiens, David                   AIRDRIE       AB  CAN      34/76  M30-34    44   34  245   36:31  1:56   5:36  41  270 2:58:31  31.6    3:17  33  201 1:49:53  5:13         
  220     05:34:14 Boucher, Sean                  CALGARY       AB  CAN      45/115 M35-39  1005   13  102   32:42  1:44   5:29  32  159 2:49:20  33.3    2:51  69  390 2:03:54  5:53         
  221     05:34:17 Robinson, Tyler                CALGARY       AB  CAN      29/87  M40-44   227   28  257   36:51  1:57   6:54  29  202 2:53:02  32.6    3:51  28  255 1:53:42  5:24         
  222     05:34:22 Park, Travis                   EDMONTON      AB  CAN      35/76  M30-34    43   33  237   36:19  1:55   4:10  28  173 2:50:16  33.1    2:09  47  363 2:01:31  5:46         
  223     05:34:52 Anderson, Julie                BLAIRMORE     AB  CAN       9/63  W35-39   420   15  253   36:41  1:56   4:13  14  305 3:00:24  31.3    1:47   9  224 1:51:49  5:18         
  224     05:35:13 Schmidt, Mayo                  REGINA        SK  CAN      11/57  M50-54   767   13  280   37:19  1:58   8:12  14  223 2:54:34  32.3    3:59  10  215 1:51:09  5:17         
  225     05:35:16 Case, Derek                    CALGARY       AB  CAN       3/28  M55-59   817    2   95   32:30  1:43   3:42  16  475 3:12:17  29.3    1:53   2  138 1:44:56  4:59         
  226     05:35:45 Jenkins, Kent                  CALGARY       AB  CAN      46/115 M35-39  1006   84  586   43:59  2:19   4:42  55  278 2:58:55  31.5    2:02  26  154 1:46:09  5:02         
  227     05:36:01 Orzeck, Tricia                 VANCOUVER     BC  CAN      10/63  W35-39   411   26  359   38:47  2:03   4:57   2  145 2:47:58  33.6    2:34  19  366 2:01:47  5:47         
  228     05:36:43 Masik, Brady                   ST. ALBERT    AB  CAN       7/21  M18-24   590    9  189   35:23  1:52   6:56   9  243 2:56:29  32.0    2:35   7  278 1:55:22  5:29         
  229     05:36:45 Rooney, Jim                    COCHRANE      AB  CAN      30/87  M40-44   969   42  371   39:00  2:04   4:56  41  306 3:00:24  31.3    2:58  20  197 1:49:28  5:12         
  230     05:36:50 Birse, Tara                    CALGARY       AB  CAN      11/63  W35-39   439   22  317   37:57  2:00   6:35   8  203 2:53:03  32.6    4:03  11  276 1:55:15  5:28         
  231     05:36:52 Venner, Julie                  CALGARY       AB  CAN       9/37  W25-29   348    6   97   32:35  1:43   4:17   9  312 3:00:54  31.2    1:48  12  302 1:57:20  5:34         
  232     05:36:56 Schaffer, Ryan                 REGINA        SK  CAN      36/76  M30-34    52   35  246   36:31  1:56   5:29  58  455 3:10:47  29.6    1:49  22  110 1:42:22  4:52         
  233     05:37:00 Lister, Warren                 REGINA        SK  CAN      12/57  M50-54   725   15  289   37:29  1:59   6:16  11  164 2:49:52  33.2    2:41  25  347 2:00:43  5:44         
  234     05:37:04 Pooley, Christopher            CALGARY       AB  CAN      47/115 M35-39   197   89  617   44:36  2:21   4:53  30  155 2:48:46  33.4    2:50  58  289 1:56:02  5:30         
  235     05:37:23 Morley, Dan                    CALGARY       AB  CAN      16/62  M45-49   683   43  531   42:29  2:15   5:54  19  238 2:56:14  32.0    2:57  12  200 1:49:51  5:13         
  236     05:37:56 Dantzer, Mark                  CALGARY       AB  CAN       4/28  M55-59   815    5  222   36:04  1:54   6:09   3  183 2:51:12  32.9    2:43   6  367 2:01:50  5:47         
  237     05:38:01 Jackman, David                 CALGARY       AB  CAN      31/87  M40-44   230   52  436   40:07  2:07   5:18  63  492 3:13:36  29.1    2:24   7   69 1:36:37  4:35         
  238     05:38:18 Kao, James                     CALGARY       BC  CAN      48/115 M35-39   123   93  651   45:35  2:24   4:37  52  260 2:57:28  31.8    2:19  33  178 1:48:22  5:09         
  239     05:38:20 Douglas, Greg                  REGINA        SK  CAN      17/62  M45-49   691   13  200   35:43  1:53   5:04  28  323 3:01:37  31.1    3:08  18  240 1:52:49  5:21         
  240     05:38:23 Willcocks, Scott               CALGARY       AB  CAN      18/62  M45-49   716    5  138   33:59  1:48   4:50  26  320 3:01:31  31.1    2:44  21  277 1:55:21  5:28         
  241     05:38:28 Morden, Fraser                 CALGARY       AB  CAN      37/76  M30-34    47   50  375   39:03  2:04   5:20  30  177 2:50:40  33.0    2:21  46  355 2:01:06  5:45         
  242     05:38:33 Sanderson, Darrell             DEVON         AB  CAN      19/62  M45-49   717   18  288   37:29  1:59   6:57  17  217 2:54:15  32.4    3:00  25  295 1:56:54  5:33         
  243     05:38:38 Johnstone, Robb                CALGARY       AB  CAN      20/62  M45-49   686   16  268   37:03  1:57   8:03  10  156 2:48:49  33.4    4:51  30  331 1:59:54  5:41         
  244     05:38:42 Tenning, Jilleun               NORTH SAANICH BC  CAN      10/37  W25-29   842   10  125   33:43  1:47   3:41  10  341 3:02:38  30.9    1:44  11  298 1:56:58  5:33         
  245     05:38:52 Woodward, Amy                  CALGARY       AB  CAN      11/37  W25-29   353    9  116   33:16  1:46   4:01  11  381 3:05:30  30.4    2:13  10  259 1:53:55  5:24         
  246     05:38:54 Pachal, Brad                   CALGARY       AB  CAN      13/57  M50-54   727   10  217   35:58  1:54   5:25  12  187 2:51:23  32.9    2:20  30  389 2:03:49  5:53         
  247     05:38:56 Gosselin, Ray                  EDMONTON      AB  CAN      21/62  M45-49   821   48  600   44:17  2:20   8:05  15  192 2:52:07  32.8    4:00  13  209 1:50:30  5:15         
  248     05:38:57 Nitschke, Bob                  CALGARY       AB  CAN      38/76  M30-34    35   61  479   41:17  2:11   9:25  27  168 2:49:59  33.2    2:32  39  281 1:55:45  5:30         
  249     05:39:13 Wiley, Kate                    CALGARY       AB  CAN       3/24  W45-49   536    4  174   35:05  1:51   5:50   5  302 3:00:19  31.3    2:06   5  287 1:55:54  5:30         
  250     05:39:15 Jurgens, Marika                PRINCE GEORGE BC  CAN      12/63  W35-39   455    5  118   33:18  1:46   4:57  16  346 3:03:02  30.8    2:03  12  288 1:55:58  5:30         
  251     05:39:19 Brochu, Karl                   SAINT-LAZARE  QC  CAN      32/87  M40-44   282   37  326   38:10  2:01   6:25  38  282 2:59:07  31.5    2:09  27  249 1:53:31  5:23         
  252     05:39:21 Bich, Kirsten                  DULUTH        MN  USA       4/34  W40-44   486   18  543   42:45  2:15   6:04   1  184 2:51:16  32.9    1:49   6  306 1:57:29  5:35         
  253     05:39:24 Kerber, Tom                    BLACKDIAMOND  AB  CAN      22/62  M45-49   702   23  321   38:00  2:00   5:41  12  171 2:50:06  33.2    1:53  36  388 2:03:45  5:52         
  254     05:39:36 Hubick, Jason                  REGINA        SK  CAN      23/62  M45-49   660   39  497   41:43  2:12   6:42  32  355 3:03:44  30.7    2:37  10  137 1:44:52  4:59         
  255     05:40:00 McCall, Curtis                 CALGARY       AB  CAN      39/76  M30-34    91   28  209   35:52  1:54   6:43  37  261 2:57:40  31.7    2:51  41  296 1:56:55  5:33         
  256     05:40:01 Overy, Joe                     CALGARY       AB  CAN      49/115 M35-39   135   51  393   39:21  2:05   4:48  41  220 2:54:21  32.3    2:50  61  320 1:58:43  5:38         
  257     05:40:47 Ridling, Mike                  CALGARY       AB  CAN      50/115 M35-39   131   29  247   36:33  1:56   4:47  59  295 2:59:54  31.4    2:33  59  299 1:57:02  5:33         
  258     05:41:09 Nagel, David                   REGINA        SK  CAN      33/87  M40-44   229   55  449   40:22  2:08   6:58  39  287 2:59:17  31.5    3:47  23  212 1:50:47  5:15         
  259     05:41:33 Zerff, Trevor                  REGINA        SK  CAN      34/87  M40-44   299   24  211   35:53  1:54   5:29  33  225 2:54:51  32.3    2:28  44  378 2:02:54  5:50         
  260     05:41:59 Thiessen, Trent                SASKATOON     SK  CAN      51/115 M35-39   210   55  410   39:40  2:06   5:17  78  421 3:08:16  30.0    2:39  25  153 1:46:08  5:02         
  261     05:42:19 Salmon, Ross                   CALGARY       AB  CAN      14/57  M50-54   732   17  327   38:11  2:01   7:41  25  356 3:03:45  30.7    4:42   8  175 1:48:01  5:08         
  262     05:42:26 Lopez, Rafael                  CALGARY       AB  CAN      26/62  M25-29   623   55  679   46:36  2:28   4:34  22  256 2:57:16  31.8    2:11  28  225 1:51:50  5:19         
  263     05:42:42 Clarke, Douglas                STRATHMORE    AB  CAN      52/115 M35-39   163   34  276   37:12  1:58   6:54  63  311 3:00:52  31.2    4:10  53  252 1:53:36  5:23         
  264     05:42:42 Sali, Michael                  REGINA        SK  CAN      27/62  M25-29   629   31  294   37:31  1:59   4:39  40  467 3:11:48  29.4    2:01  21  161 1:46:45  5:04         
  265     05:42:52 Sawa, Brad                     CALGARY       AB  CAN      40/76  M30-34    95   70  606   44:26  2:21   6:44  36  251 2:56:48  31.9    2:08  36  239 1:52:48  5:21         
  266     05:42:58 Dunn, Charlene                 CALGARY       AB  CAN       4/24  W45-49   522   11  381   39:10  2:04   5:00   4  232 2:55:41  32.1    2:13   8  351 2:00:56  5:44         
  267     05:43:07 Moar, Shaun                    CALGARY       AB  CAN      15/57  M50-54   750   32  523   42:16  2:14   7:03  13  207 2:53:13  32.6    2:33  21  311 1:58:03  5:36         
  268     05:43:41 Lowe, Trevor                   CLARKE'S BEAC NL  CAN      35/87  M40-44   251   46  406   39:34  2:05   6:35  46  342 3:02:41  30.9    2:19  24  232 1:52:33  5:21         
  269     05:43:44 Wesolowski, Michael            CALGARY       AB  CAN      24/62  M45-49   712    8  161   34:30  1:49   5:38  34  403 3:06:36  30.2    3:07  20  258 1:53:54  5:24         
  270     05:43:56 Lindskog, Jeff                 REGINA        SK  CAN      41/76  M30-34    42   16  123   33:41  1:47   3:39  54  415 3:07:29  30.1    3:18  40  284 1:55:51  5:30         
  271     05:44:07 Harding, Rochelle              CANMORE       AB  CAN       6/47  W30-34   393   10  240   36:24  1:55   4:28  13  428 3:08:50  29.9    1:56  10  230 1:52:31  5:20         
  272     05:44:08 Clague, Kevin                  EDMONTON      AB  CAN      53/115 M35-39   211   48  357   38:45  2:03   8:46  71  348 3:03:13  30.8    3:11  42  205 1:50:14  5:14         
  273     05:44:09 Mathieu, Joseph                STONY PLAIN   AB  CAN       8/21  M18-24   577    2   31   27:24  1:27   4:45  10  288 2:59:22  31.4    5:42  11  438 2:06:58  6:01         
  274     05:44:11 Sebjanic, Aundrea              CALGARY       AB  CAN      13/63  W35-39   461   21  314   37:51  2:00   6:36   9  204 2:53:11  32.6    2:18  23  396 2:04:18  5:54         
  275     05:44:13 Dubord, Monique                TORONTO       ON  CAN       5/24  W45-49   520   15  440   40:11  2:07   5:08   2  197 2:52:27  32.7    2:04  10  399 2:04:24  5:54         
  276     05:44:23 Sadler, Doug                   ST. ALBERT    AB  CAN       5/28  M55-59   791    1   92   32:24  1:43   5:11   7  313 3:00:56  31.2    3:00   7  379 2:02:55  5:50         
  277     05:44:28 Flannigan, Ryan                PRINCE ALBERT AB  CAN       9/21  M18-24  1033   21  795 1:05:39  3:28   5:17   5  111 2:43:08  34.6    2:32   4  174 1:47:54  5:07         
  278     05:44:42 Nelson, Roger                  MEDICINE HAT  AB  CAN      16/57  M50-54   726   40  599   44:14  2:20   7:59  15  237 2:56:12  32.0    2:46  15  251 1:53:33  5:23         
  279     05:44:52 Kokoska, Kevin                 LANGLEY       BC  CAN      10/21  M18-24   594    5  137   33:58  1:48   6:45  13  392 3:06:08  30.3    2:17   8  282 1:55:47  5:30         
  280     05:45:08 Lazar, Sam                     VANDERHOOF    BC  CAN      54/115 M35-39   932   32  260   36:59  1:57   4:46  81  440 3:09:42  29.7    2:34  45  216 1:51:10  5:17         
  281     05:45:08 Sobering, Renee                BILLINGS      MT  USA       7/47  W30-34   373   35  590   44:03  2:20   5:04   6  276 2:58:52  31.5    2:01  12  275 1:55:10  5:28         
  282     05:45:16 Malpica, Rosario               CALGARY       AB  CAN       8/47  W30-34   392    5  117   33:17  1:46   5:46  21  547 3:18:30  28.4    3:24   4  132 1:44:21  4:57         
  283     05:45:16 Herrera, Alfredo               LEON              MEX      55/115 M35-39   155   52  403   39:30  2:05   8:54  53  263 2:57:45  31.7    4:57  55  264 1:54:13  5:25         
  284     05:45:22 Tse, Daisy                     CALGARY       AB  CAN      14/63  W35-39   423   29  446   40:19  2:08   6:19  28  437 3:09:21  29.8    1:54   3  170 1:47:31  5:06         
  285     05:45:38 Siemens, Ryan                  CALGARY       AB  CAN      28/62  M25-29   620   52  668   46:21  2:27   4:52  32  369 3:04:45  30.5    2:35  22  164 1:47:06  5:05         
  286     05:45:46 Willmott, Edward               WINNIPEG      MB  CAN      25/62  M45-49   701   45  557   43:05  2:17   6:49  21  267 2:58:03  31.7    5:28  16  228 1:52:23  5:20         
  287     05:46:23 Ferguson, Andrew               CALGARY       AB  CAN      42/76  M30-34    67   26  177   35:08  1:51   4:47  25  152 2:48:43  33.4    2:37  62  530 2:15:10  6:25         
  288     05:46:26 Hoehn, Katja                   CALGARY       AB  CAN       6/24  W45-49   539    3  159   34:27  1:49   6:53   6  326 3:01:49  31.0    2:06   9  358 2:01:13  5:45         
  289     05:46:35 Andersen, Lindsay              BANFF         AB  CAN      15/63  W35-39   419    9  153   34:18  1:49   4:35  22  384 3:05:49  30.4    3:31  16  315 1:58:24  5:37         
  290     05:46:57 Vaughan, Rick                  YORKTON       SK  CAN      17/57  M50-54   731   36  560   43:09  2:17   7:49  32  414 3:07:27  30.1    3:01   4  146 1:45:32  5:01         
  291     05:47:08 Bantle, Gary                   CALGARY       AB  CAN      26/62  M45-49   668   12  195   35:34  1:53   5:32  36  407 3:06:48  30.2    2:55  24  291 1:56:21  5:31         
  292     05:47:16 Raoux, Daren                   CALGARY       AB  CAN      56/115 M35-39   205   75  539   42:41  2:15   5:01  62  307 3:00:27  31.3    4:02  57  274 1:55:06  5:28         
  293     05:47:25 Benson, Allen                  GIG HARBOR    WA  USA      36/87  M40-44   306   15  166   34:52  1:51   5:36  37  281 2:59:05  31.5    2:03  50  425 2:05:50  5:58         
  294     05:47:43 Ruptash, Bart                  GRANDE PRAIRI AB  CAN      57/115 M35-39   223   73  530   42:28  2:15   6:46  68  334 3:02:01  31.0    2:58  52  250 1:53:31  5:23         
  295     05:47:54 Easterby, Brian                EDMONTON      AB  CAN      18/57  M50-54   758   11  224   36:06  1:54   5:44  21  316 3:01:16  31.1    3:17  29  365 2:01:33  5:46         
  296     05:47:59 Keller, Brent                  CALGARY       AB  CAN      58/115 M35-39  1013   83  569   43:17  2:17   4:57  51  258 2:57:20  31.8    2:25  63  335 2:00:02  5:42         
  297     05:48:08 Galway, Liam                   CALGARY       AB  CAN      43/76  M30-34    76   37  252   36:40  1:56   5:37  29  174 2:50:18  33.1    2:49  61  503 2:12:47  6:18         
  298     05:48:16 Harrison, Brian                ALBERTA       AB  CAN      29/62  M25-29   609   45  576   43:24  2:18   5:54  27  303 3:00:23  31.3    3:38  30  273 1:54:59  5:27         
  299     05:48:53 Hill, Brian                    ST. ALBERT    AB  CAN      19/57  M50-54   741   21  365   38:55  2:03   8:38  22  318 3:01:19  31.1    4:28  18  280 1:55:35  5:29         
  300     05:48:56 Matthews, Jeremy               AIRDRIE       AB  CAN      44/76  M30-34    94   36  249   36:38  1:56   4:31  52  389 3:06:04  30.3    2:25  44  328 1:59:19  5:40         
  301     05:49:15 Ostrom, John                   CALGARY       AB  CAN      20/57  M50-54  1027    3   99   32:40  1:44   7:00  38  516 3:16:16  28.7    3:00   9  208 1:50:22  5:14         
  302     05:49:19 Wiebe, Stephen                 CALGARY       AB  CAN      27/62  M45-49  1025   34  465   40:51  2:09   6:48  24  293 2:59:52  31.4    3:00  28  322 1:58:49  5:38         
  303     05:49:26 Labhardt, Max                  CALGARY       AB  CAN      21/57  M50-54   989   25  397   39:24  2:05   6:23  18  283 2:59:10  31.5    3:21  27  357 2:01:10  5:45         
  304     05:49:37 Paylor, Woody                  RED DEER      AB  CAN       1/3   M65-69   829    2  612   44:32  2:21   4:49   1  277 2:58:55  31.5    2:28   1  326 1:58:56  5:39         
  305     05:49:43 Vanichkachorn, Greg            KALISPELL     MT  USA      45/76  M30-34    75   39  283   37:21  1:58   6:35  38  262 2:57:44  31.7    2:52  52  413 2:05:13  5:57         
  306     05:49:52 Howard, Michael                CALGARY       AB  CAN      37/87  M40-44   301   45  380   39:07  2:04   7:54  20  140 2:47:09  33.7    2:37  57  509 2:13:06  6:19         
  307     05:49:58 Jones, Timothy                 CALGARY       AB  CAN      38/87  M40-44   961   61  581   43:46  2:19   4:08  21  143 2:47:36  33.7    2:34  54  494 2:11:55  6:16         
  308     05:50:07 Wiens, Kevin                   CALGARY       AB  CAN      59/115 M35-39   203   41  315   37:55  2:00   6:55  86  478 3:12:23  29.3    2:36  43  207 1:50:21  5:14         
  309     05:50:09 Bender, Shelley                CALGARY       AB  CAN       9/47  W30-34   408    7  157   34:23  1:49   7:31  14  458 3:10:52  29.5    3:10  11  266 1:54:15  5:25         
  310     05:50:13 Le, Tuan                       SEATTLE       WA  USA      60/115 M35-39   170  105  733   49:37  2:37   7:08  66  329 3:01:54  31.0    2:37  35  187 1:48:59  5:10         
  311     05:50:15 Filewych, Lorne                CALGARY       AB  CAN      61/115 M35-39   172   80  558   43:06  2:17   9:18  64  324 3:01:41  31.0    3:57  48  227 1:52:15  5:20         
  312     05:50:22 Urzada, Eric                   CALGARY       AB  CAN      46/76  M30-34    38   64  535   42:34  2:15   5:22  43  331 3:01:59  31.0    2:34  43  309 1:57:55  5:36         
  313     05:50:35 Loyek, Dwayne                  RED DEER      AB  CAN      39/87  M40-44   283   22  204   35:48  1:54   4:16  50  376 3:05:08  30.5    2:15  45  381 2:03:10  5:51         
  314     05:50:37 Gingrich, Aaron                NEW YORK      NY  USA      30/62  M25-29   627   17  168   34:54  1:51   6:20  48  563 3:19:36  28.3    1:20  25  179 1:48:28  5:09         
  315     05:50:50 Michaud, Danielle              CALGARY       AB  CAN      12/37  W25-29   354   25  564   43:12  2:17   4:21  13  489 3:13:14  29.2    1:21   7  182 1:48:44  5:10         
  316     05:51:19 Foyle, Bob                     ORANGE        CA  USA      40/87  M40-44   313   44  376   39:03  2:04   4:56  54  417 3:07:42  30.0    3:11  31  293 1:56:28  5:32         
  317     05:51:21 Palmer, Natalie                BANFF         AB  CAN      16/63  W35-39   413   11  164   34:48  1:50   5:34  29  442 3:09:46  29.7    3:10  15  313 1:58:06  5:36         
  318     05:51:26 MacLachlan, Sean               LANGDON       AB  CAN      47/76  M30-34    60   71  610   44:29  2:21   3:36  51  385 3:05:52  30.3    2:06  38  279 1:55:26  5:29         
  319     05:51:57 Cross, Scott                   DALLAS        TX  USA      62/115 M35-39   222   95  659   46:00  2:26   6:57  69  344 3:02:55  30.8    2:14  54  257 1:53:53  5:24         
  320     05:52:05 See, Ryan                      CALGARY       AB  CAN      31/62  M25-29   656   38  390   39:19  2:05   6:24  30  340 3:02:34  30.9    4:44  34  327 1:59:05  5:39         
  321     05:52:11 Halas, Jennifer                CALGARY       AB  CAN      17/63  W35-39   475   36  499   41:45  2:12   7:24  15  319 3:01:21  31.1    4:20  14  303 1:57:23  5:34         
  322     05:52:18 Thomas, Crystal                TERRACE       BC  CAN       5/34  W40-44   517    3  158   34:25  1:49   5:01   4  269 2:58:26  31.6    3:01  18  487 2:11:27  6:14         
  323     05:52:35 Herle, Neil                    CALGARY       AB  CAN      63/115 M35-39   194   98  696   47:26  2:30   9:57  82  447 3:10:03  29.7    3:32  18  104 1:41:39  4:50         
  324     05:52:44 Byrne, Ronan                   CHILLIWACK    BC  CAN      41/87  M40-44   280   23  207   35:51  1:54   4:22  28  186 2:51:22  32.9    3:09  61  563 2:18:02  6:33         
  325     05:52:50 Salter, Brad                   SASKATOON     SK  CAN      48/76  M30-34    80   48  363   38:50  2:03   6:55  63  527 3:16:56  28.6    4:44  30  145 1:45:27  5:00         
  326     05:52:52 Farenick, Doug                 REGINA        SK  CAN      28/62  M45-49   713    6  147   34:09  1:48   4:59  33  359 3:03:51  30.7    3:09  41  436 2:06:46  6:01         
  327     05:53:07 Rose, Stephen                  WHITEHORSE    YT  CAN      22/57  M50-54   769   37  563   43:11  2:17   7:21  34  429 3:08:52  29.9    2:20  11  218 1:51:26  5:17         
  328     05:53:09 Campbell, Jennifer             CALGARY       AB  CAN       2/19  W50-54   548    4  259   36:58  1:57   7:21   2  317 3:01:18  31.1    4:06   3  387 2:03:29  5:52         
  329     05:53:12 Vermette, Gary                 LADYSMITH     BC  CAN       1/10  M60-64   997    9  672   46:25  2:27   5:06   3  365 3:04:25  30.6    2:29   2  270 1:54:50  5:27         
  330     05:53:29 Brown, Evan                    OTTAWA        ON  CAN      11/21  M18-24   589   18  585   43:52  2:19   5:59   8  212 2:53:44  32.5    3:18  10  435 2:06:39  6:01         
  331     05:53:37 Romero, Oswaldo                CALGARY       AB  CAN      64/115 M35-39   196   46  335   38:22  2:02   6:18  60  296 2:59:57  31.3    2:44  74  431 2:06:17  6:00         
  332     05:53:44 Gokiert, Brenda                CALGARY       AB  CAN      18/63  W35-39   440   18  302   37:36  1:59   4:46  25  398 3:06:27  30.2    2:10  21  376 2:02:47  5:50         
  333     05:53:59 Phelps, Dan                    CALGARY       AB  CAN      49/76  M30-34   112   44  337   38:24  2:02   7:51  59  457 3:10:51  29.6    3:34  37  248 1:53:22  5:23         
  334     05:54:06 Hamlin, Jen                    CALGARY       AB  CAN      10/47  W30-34   406   11  248   36:37  1:56   4:14  10  405 3:06:47  30.2    1:47  17  406 2:04:44  5:55         
  335     05:54:12 Richmond, Trevor               CALGARY       AB  CAN      50/76  M30-34    85   22  140   34:02  1:48   4:37  47  362 3:04:12  30.6    3:22  55  445 2:08:01  6:05         
  336     05:54:14 Traynor, Ted                   CALGARY       AB  CAN       2/10  M60-64   823    5  571   43:19  2:17   7:53   4  519 3:16:30  28.7    2:25   1  128 1:44:09  4:57         
  337     05:54:17 Vose, Jonathan                 LAS VEGAS     NV  USA      42/87  M40-44  1015   35  309   37:43  2:00   6:46  51  401 3:06:32  30.2    4:47  34  318 1:58:31  5:37         
  338     05:54:23 McGuire, Paddy                 CALGARY       AB  CAN      29/62  M45-49   721   19  293   37:30  1:59   5:43  27  321 3:01:34  31.1    4:24  38  414 2:05:15  5:57         
  339     05:54:29 Kelly, Ron                     SASKATOON     SK  CAN      23/57  M50-54   991   44  663   46:09  2:26   6:37  17  259 2:57:25  31.8    3:52  24  343 2:00:28  5:43         
  340     05:54:29 Polreis, D'Arcy                SASKATOON     SK  CAN      30/62  M45-49   977   28  367   38:57  2:03   5:40  38  422 3:08:18  30.0    1:41  31  332 1:59:55  5:41         
  341     05:54:36 Koehli, Joshua                 EDMONTON      AB  CAN      32/62  M25-29   619   13  139   34:01  1:48   5:56  35  387 3:06:02  30.3    2:27  40  430 2:06:12  5:59         
  342     05:54:56 Moncrieff, Shannon             CALGARY       AB  CAN      31/62  M45-49   704   41  514   42:08  2:14   6:48  23  286 2:59:12  31.5    2:31  37  397 2:04:18  5:54         
  343     05:55:07 Whittall, Candis               GRANDE PRAIRI AB  CAN       7/24  W45-49   540   16  473   40:59  2:10   4:55   8  480 3:12:28  29.3    2:35   4  263 1:54:12  5:25         
  344     05:55:18 Markatos, Dimitrios            REGINA        SK  CAN      43/87  M40-44   254   63  589   44:02  2:20   6:38  44  328 3:01:52  31.0    2:28  38  340 2:00:20  5:43         
  345     05:55:24 Inglis-Mcquay, Carolanne       SASKATOON     SK  CAN      11/47  W30-34   382   18  378   39:06  2:04   6:02   8  396 3:06:18  30.3    2:53  16  356 2:01:07  5:45         
  346     05:55:29 Gieck, Kelvin                  CALGARY       AB  CAN      51/76  M30-34    82   46  349   38:41  2:03   6:01  35  241 2:56:16  32.0    3:23  58  479 2:11:10  6:13         
  347     05:55:33 Vucurevich, Jeff               LETHBRIDGE    AB  CAN      65/115 M35-39   220   50  391   39:20  2:05   5:25  76  395 3:06:13  30.3    3:07  66  362 2:01:30  5:46         
  348     05:55:33 Pumphrey, John                 CALGARY       AB  CAN      66/115 M35-39   132   47  355   38:44  2:03   6:36  70  345 3:03:01  30.8    4:38  67  374 2:02:35  5:49         
  349     05:55:33 Bell, Sean                     CALGARY       AB  CAN      44/87  M40-44   956   58  493   41:35  2:12   7:49  43  314 3:01:01  31.2    4:26  41  348 2:00:44  5:44         
  350     05:55:42 Jalbert, Daniel                CALGARY       AB  CAN      52/76  M30-34    97   30  225   36:06  1:54   6:23  55  416 3:07:42  30.0    5:21  45  337 2:00:12  5:42         
  351     05:55:44 Fiori, Justin                  REGINA        SK  CAN      53/76  M30-34    46   53  415   39:46  2:06   5:20  34  229 2:55:24  32.2    3:25  59  493 2:11:53  6:15         
  352     05:55:49 Normand, Anne                  DULUTH        MN  USA      19/63  W35-39   450   55  700   47:43  2:31   6:13  18  361 3:04:03  30.6    3:10  10  268 1:54:43  5:27         
  353     05:55:52 Paddington, Colin              CALGARY       AB  CAN      67/115 M35-39   133   44  328   38:12  2:01   5:09  80  435 3:09:16  29.8    2:01  65  359 2:01:15  5:45         
  354     05:56:02 Nisimblat, Erik                ALICE         TX  USA      45/87  M40-44   249   39  338   38:24  2:02   5:57  57  443 3:09:50  29.7    2:17  36  329 1:59:36  5:41         
  355     05:56:14 McEwen, Ross                   EDMONTON      AB  CAN      24/57  M50-54   723   47  691   47:06  2:29   5:17  23  322 3:01:36  31.1    2:18  23  333 1:59:59  5:42         
  356     05:56:31 Lim, Andrew                    EDMONTON      AB  CAN      46/87  M40-44   318   43  373   39:00  2:04   5:47  55  418 3:08:00  30.0    1:56  42  368 2:01:51  5:47         
  357     05:56:32 Louttit, Suzanne               REGINA        SK  CAN       6/34  W40-44   515    4  162   34:31  1:49   7:04  12  448 3:10:04  29.7    3:30   9  361 2:01:25  5:46         
  358     05:56:45 Holmes, Paul                   RED DEER      AB  CAN      25/57  M50-54   733   23  368   38:57  2:03   6:56  24  349 3:03:21  30.8    3:09  31  398 2:04:23  5:54         
  359     05:56:46 Raber, Susan                   SAN DIEGO     CA  USA       7/34  W40-44   507    5  220   36:02  1:54   7:34   8  315 3:01:03  31.2    2:34  14  464 2:09:35  6:09         
  360     05:56:53 Urbani, Gian                   RED DEER      AB  CAN      47/87  M40-44   953   50  427   39:59  2:07   7:42  45  339 3:02:26  30.9    4:42  43  370 2:02:06  5:48         
  361     05:56:57 Nelson, Rob                    REGINA        SK  CAN      26/57  M50-54   773   33  524   42:20  2:14   6:56  29  390 3:06:06  30.3    3:11  22  316 1:58:26  5:37         
  362     05:57:02 Willson, Somer                 CALGARY       AB  CAN      12/47  W30-34   371   15  348   38:40  2:03   5:01  28  579 3:21:33  28.0    1:33   8  206 1:50:17  5:14         
  363     05:57:25 Latonas, Sarah                 EDMONTON      AB  CAN       4/16  W18-24   320    7  251   36:39  1:56   6:23   8  513 3:16:04  28.8    3:34   4  269 1:54:47  5:27         
  364     05:57:39 Arseneault, Dawn               CALGARY       AB  CAN      20/63  W35-39   457   30  447   40:19  2:08   6:16  19  366 3:04:25  30.6    1:57  25  405 2:04:43  5:55         
  365     05:57:40 Robdrup, Danny                 LETHBRIDGE    AB  CAN      33/62  M25-29   642   23  203   35:47  1:53   6:30  36  412 3:07:21  30.1    2:29  39  418 2:05:35  5:58         
  366     05:57:47 Cyr, Jason                     OKOTOKS       AB  CAN      68/115 M35-39   173   67  486   41:27  2:11   4:24  44  231 2:55:36  32.1    2:33  83  519 2:13:49  6:21         
  367     05:58:04 Raine, Kim                     EDMONTON      AB  CAN       8/24  W45-49   541   22  719   48:55  2:35   6:37   7  411 3:07:12  30.1    2:49   2  231 1:52:33  5:20         
  368     05:58:06 Dymond, Melissa                EDMONTON      AB  CAN       5/16  W18-24   325    2   55   30:32  1:37   4:56   6  491 3:13:23  29.2    2:25   8  437 2:06:52  6:01         
  369     05:58:12 Wilkinson, Stephanie           CANMORE       AB  CAN      13/47  W30-34   405   32  572   43:20  2:17   8:15  17  464 3:11:36  29.4    3:02   9  226 1:52:00  5:19         
  370     05:58:25 Clayholt, Gord                 CROSSFIELD    AB  CAN      27/57  M50-54   742   54  773   56:44  3:00   4:18  20  294 2:59:53  31.4    2:36  17  272 1:54:57  5:27         
  371     05:58:35 Riou, Mike                     EDMONTON      AB  CAN      48/87  M40-44   226   66  619   44:37  2:21   8:14  40  297 3:00:01  31.3    5:22  39  342 2:00:22  5:43         
  372     05:58:46 Schweitzer, Christopher        REGINA        SK  CAN      34/62  M25-29   658   12  133   33:54  1:48   5:47  34  383 3:05:42  30.4    1:58  45  486 2:11:27  6:14         
  373     05:59:02 Strickland, Rory               ADELAIDE      SA  AUS      69/115 M35-39   165   27  239   36:21  1:55   6:04  79  425 3:08:23  29.9    2:37  72  419 2:05:39  5:58         
  374     05:59:05 Jackson, Matthew               PENTICTON     BC  CAN      28/57  M50-54   736    4  134   33:55  1:48   6:27  16  244 2:56:30  32.0    6:51  39  532 2:15:24  6:25         
  375     05:59:09 Armstrong, Brad                MOORETOWN     ON  CAN      49/87  M40-44   238   30  269   37:04  1:58   4:39  49  354 3:03:37  30.7    2:34  53  481 2:11:17  6:14         
  376     05:59:10 Warsylewicz, Lane              REGINA        SK  CAN      29/57  M50-54   988   31  522   42:15  2:14   4:39  26  364 3:04:19  30.6    2:56  33  411 2:05:03  5:56         
  377     05:59:27 Padua, Susan                   CALGARY       AB  CAN       8/34  W40-44   488   13  419   39:49  2:06   5:10   3  247 2:56:39  31.9    2:09  20  535 2:15:42  6:26         
  378     05:59:35 Moniz, Nancy                   LONDON        ON  CAN       9/34  W40-44   491   19  553   43:02  2:16   6:36  13  482 3:12:32  29.3    3:31   4  260 1:53:55  5:24         
  379     05:59:37 McDonald, Sandra               FORT ST JOHN  BC  CAN      10/34  W40-44   494    7  272   37:07  1:58   5:00   2  200 2:52:43  32.7    3:24  24  590 2:21:26  6:43         
  380     05:59:45 Stanton, Pete                  CALGARY       AB  CAN       3/10  M60-64   827    4  534   42:33  2:15   6:29   1  133 2:46:17  33.9    3:25   5  584 2:21:03  6:42         
  381     05:59:45 Arcuri, Darren                 CALGARY       AB  CAN      70/115 M35-39   143   20  190   35:24  1:52   5:15  49  249 2:56:43  31.9    2:24  88  577 2:20:00  6:39         
  382     05:59:58 Leske, Ray                     GIG HARBOR    WA  USA      32/62  M45-49   698   31  433   40:03  2:07   4:33  35  404 3:06:39  30.2    2:25  40  432 2:06:19  6:00         
  383     06:00:15 Kennedy, Lori                  FERNIE        BC  CAN      11/34  W40-44   882   11  395   39:22  2:05   6:34  14  487 3:13:06  29.2    2:22   7  324 1:58:53  5:39         
  384     06:00:30 Bosshard, Myriam               SUMMERLAND    BC  CAN       6/16  W18-24   839   12  455   40:30  2:08   5:03   4  394 3:06:12  30.3    2:48   7  427 2:05:59  5:59         
  385     06:00:34 Singleton, Darren              CALGARY       AB  CAN      71/115 M35-39   166   37  286   37:24  1:59   5:03  50  250 2:56:47  31.9    3:44  86  559 2:17:38  6:32         
  386     06:00:38 Irvine, Daniel                 LARONGE       SK  CAN      35/62  M25-29   601   41  454   40:29  2:08   6:01  37  424 3:08:21  29.9    3:22  37  373 2:02:27  5:49         
  387     06:00:51 Wingerter, Les                 LETHBRIDGE    AB  CAN      30/57  M50-54   770   22  366   38:56  2:03   6:34  42  536 3:17:46  28.5    4:51  13  237 1:52:46  5:21         
  388     06:00:57 Ohara, Ryan                    EDMONTON      AB  CAN      36/62  M25-29   614   33  305   37:40  1:59   9:02  28  327 3:01:51  31.0    4:55  41  443 2:07:31  6:03         
  389     06:01:02 McGeehan, Paul                 PORT MOODY        ENG      72/115 M35-39   111   40  313   37:50  2:00   7:59  67  330 3:01:57  31.0    3:39  78  466 2:09:39  6:09         
  390     06:01:15 Zettersten, Rolf               NASHVILLE     TN  USA       6/28  M55-59   794   22  616   44:35  2:21   5:50   8  332 3:02:00  31.0    3:32  10  415 2:05:20  5:57         
  391     06:01:34 Brea, Ramon                    CARACAS           VEN      37/62  M25-29   606   37  382   39:11  2:04   7:30  31  351 3:03:24  30.8    2:18  42  460 2:09:14  6:08         
  392     06:01:43 Smith, Brent                   CALGARY       AB  CAN      31/57  M50-54   785    7  185   35:18  1:52   5:25  31  402 3:06:34  30.2    3:10  36  482 2:11:18  6:14         
  393     06:01:54 Flint, Gail                    ARDROSSAN     AB  CAN      12/34  W40-44   510    6  267   37:02  1:57   5:03   9  379 3:05:19  30.4    4:00  16  474 2:10:31  6:12         
  394     06:02:07 Bennett, Amy                   DULUTH        MN  USA      21/63  W35-39   431   35  485   41:26  2:11   5:53  21  374 3:05:00  30.5    4:11  26  420 2:05:39  5:58         
  395     06:02:14 Maccormick, Matt               HALIFAX       NS  CAN      38/62  M25-29  1032   43  506   41:56  2:13   7:02  18  194 2:52:15  32.7    6:27  46  524 2:14:35  6:23         
  396     06:02:43 Pagalilauan, Tessa             CALGARY       AB  CAN      13/34  W40-44   504   15  467   40:55  2:10   5:17  11  444 3:09:50  29.7    2:06  11  403 2:04:37  5:55         
  397     06:02:54 Cochran, Trevor                CALGARY       AB  CAN      73/115 M35-39   171   39  311   37:45  2:00   5:49  35  176 2:50:26  33.1    3:25  94  621 2:25:31  6:54         
  398     06:02:54 Edmonds, Michael               CALGARY       AB  CAN      32/57  M50-54   756   46  683   46:49  2:28   9:51  30  400 3:06:29  30.2    2:52  20  297 1:56:55  5:33         
  399     06:02:58 Dalidowicz, Matt               CALGARY       AB  CAN      54/76  M30-34   915   66  550   42:54  2:16   4:41  56  430 3:08:55  29.9    2:12  50  395 2:04:17  5:54         
  400     06:03:18 MacLean, Ian                   LETHBRIDGE        CAN      12/21  M18-24   583   10  232   36:15  1:55   8:03  12  377 3:05:10  30.5    3:07  14  478 2:10:45  6:12         
  401     06:03:40 Moore, Bruce                   REGINA        SK  CAN       7/28  M55-59   787    9  385   39:13  2:04   5:19   6  289 2:59:28  31.4    3:27  17  544 2:16:15  6:28         
  402     06:04:09 Libal, Michal                  CALGARY       AB  CAN      74/115 M35-39   174   65  476   41:09  2:10   8:50  56  279 2:58:58  31.5    3:02  80  497 2:12:11  6:16         
  403     06:04:18 McKibbon, Chuck                FORT MCMURRAY AB  CAN      75/115 M35-39  1009   14  103   32:44  1:44   5:07  95  599 3:23:41  27.7    2:47  62  334 2:00:00  5:42         
  404     06:04:26 Grenon-Lafontaine, Martine     CANMORE       AB  CAN      13/37  W25-29   345   12  198   35:41  1:53   4:42  12  441 3:09:43  29.7    2:22  18  495 2:12:01  6:16         
  405     06:04:29 Kwiatkowski, Rudy              PRINCE GEORGE BC  CAN      50/87  M40-44   971   62  587   43:59  2:19   8:56  42  309 3:00:48  31.2    2:21  51  450 2:08:26  6:06         
  406     06:04:47 Lamden, Rebecca                SPRUCE GROVE  AB  CAN       7/16  W18-24   327    8  271   37:05  1:58   5:29   9  535 3:17:45  28.5    3:05   5  360 2:01:25  5:46         
  407     06:04:53 Johnson, Gregory               BROOKS        AB  CAN      55/76  M30-34   925   42  316   37:55  2:00   6:50  48  363 3:04:14  30.6    5:17  57  475 2:10:39  6:12         
  408     06:05:01 Sego, Tanya                    CALGARY       AB  CAN      14/47  W30-34   867   37  637   45:06  2:23   5:15  19  505 3:15:10  28.9    3:38  13  286 1:55:54  5:30         
  409     06:05:14 Lew, Charlie                   CALGARY       AB  CAN      33/62  M45-49   718   50  634   45:01  2:23   7:15  30  338 3:02:25  30.9    2:22  42  448 2:08:13  6:05         
  410     06:05:23 Bannan, Mark                   CALGARY       AB  CAN      34/62  M45-49   662   26  356   38:44  2:03   6:19  31  347 3:03:03  30.8    5:03  43  498 2:12:15  6:17         
  411     06:05:41 Kladar, Andrea                 CALGARY       AB  CAN      15/47  W30-34   861   34  584   43:51  2:19   7:29  12  426 3:08:28  29.9    5:17  15  345 2:00:37  5:43         
  412     06:05:50 Love, Richelle                 COCHRANE      AB  CAN      16/47  W30-34   388   19  394   39:22  2:05   4:55   7  391 3:06:08  30.3    2:17  27  510 2:13:11  6:19         
  413     06:06:00 Hamer, Sherrie                 TERRACE       BC  CAN       3/19  W50-54   563   13  712   48:19  2:33   5:33   3  335 3:02:06  31.0    2:33   4  444 2:07:33  6:03         
  414     06:06:03 Parchello, Erin                CALGARY       AB  CAN      22/63  W35-39   427   14  234   36:16  1:55   5:14  40  533 3:17:34  28.5    3:33  22  386 2:03:27  5:52         
  415     06:06:04 Craib, Gordon                  BATTLEFORD    SK  CAN      56/76  M30-34    78   69  597   44:13  2:20   6:06  53  406 3:06:48  30.2    3:08  54  426 2:05:51  5:58         
  416     06:06:19 Girard, Nicole                 MEDICINE HAT  AB  CAN      17/47  W30-34   386    8  178   35:08  1:51   5:39  20  540 3:18:09  28.5    2:23  18  410 2:05:02  5:56         
  417     06:06:24 Claridge, Claudine             VANCOUVER     BC  CAN      23/63  W35-39  1019   57  724   49:06  2:36   5:43  26  399 3:06:28  30.2    2:31  20  375 2:02:39  5:49         
  418     06:06:36 Van Der Walt, Sarel            BATTLEFORD    SK  CAN      39/62  M25-29   654   32  300   37:34  1:59   6:23  42  506 3:15:10  28.9    2:58  38  401 2:04:32  5:55         
  419     06:06:46 Paterson, Richard              SPRUCE GROVE  AB  CAN      51/87  M40-44   266   56  466   40:52  2:10   8:30  64  503 3:15:01  28.9    3:37  35  321 1:58:48  5:38         
  420     06:06:49 Joustra, Jana                  CALGARY       AB  CAN      24/63  W35-39   464   43  592   44:05  2:20   7:11  20  368 3:04:31  30.6    4:55  29  429 2:06:08  5:59         
  421     06:06:50 Suderman, Andrew               CALGARY       AB  CAN      40/62  M25-29   607   57  734   49:37  2:37   5:30  38  453 3:10:37  29.6    3:07  32  310 1:58:01  5:36         
  422     06:07:29 McCormick, Kim                 WINNIPEG      MB  CAN      25/63  W35-39   474   38  548   42:48  2:16   4:38  13  274 2:58:43  31.6    4:35  41  549 2:16:46  6:29         
  423     06:07:29 Hicks, Andrew                  CANMORE       AB  CAN      35/62  M45-49   687   21  307   37:41  1:59   6:47  49  531 3:17:16  28.6    3:26  35  371 2:02:21  5:48         
  424     06:07:34 Scott, Ryan                    MEDICINE HAT  AB  CAN      41/62  M25-29   631   40  409   39:39  2:06   7:09  46  548 3:18:44  28.4    3:12  33  323 1:58:51  5:38         
  425     06:07:52 Pollon, Greg                   ST. ALBERT    AB  CAN      36/62  M45-49   663   38  494   41:36  2:12  10:24  45  493 3:13:41  29.1    4:50  26  304 1:57:25  5:34         
  426     06:07:53 Leishman, Tracy                CALGARY       AB  CAN      18/47  W30-34   400   20  404   39:30  2:05   6:36   9  397 3:06:22  30.3    2:49  26  502 2:12:37  6:18         
  427     06:08:09 Todd, Greg                     SASKATOON     SK  CAN      37/62  M45-49   679   49  623   44:45  2:22   6:32  41  446 3:10:02  29.7    5:58  33  350 2:00:54  5:44         
  428     06:08:12 Olson, Tim                     OKOTOKS       AB  CAN      76/115 M35-39   951   72  513   42:07  2:13   7:15  75  388 3:06:04  30.3    3:27  77  461 2:09:21  6:08         
  429     06:08:33 O'Brien, Stephanie             CALGARY       AB  CAN      19/47  W30-34   374   36  602   44:18  2:20   4:03  11  409 3:07:08  30.1    2:46  22  472 2:10:20  6:11         
  430     06:08:35 Genung, Danielle               COCHRANE      AB  can      26/63  W35-39   516   44  598   44:14  2:20   5:33  23  386 3:06:01  30.3    2:31  34  471 2:10:18  6:11         
  431     06:08:56 Wilson, Nicole                 CALGARY       AB  CAN      27/63  W35-39   424    6  120   33:21  1:46   6:12  37  517 3:16:20  28.7    4:03  30  457 2:09:03  6:07         
  432     06:09:09 Fullerton, David               BANFF         AB  CAN      77/115 M35-39   188  100  702   47:46  2:31   6:37  72  370 3:04:50  30.5    1:57  75  446 2:08:02  6:05         
  433     06:09:12 Craig, Brennan                 REGINA        SK  CAN      78/115 M35-39   115   87  604   44:22  2:21   4:32  73  371 3:04:51  30.5    2:34  82  504 2:12:54  6:18         
  434     06:09:27 Malette, Isabelle              CANDIAC       QC  CAN      14/37  W25-29   356   31  666   46:15  2:27   7:10  15  541 3:18:17  28.4    4:10   9  253 1:53:37  5:24         
  435     06:09:40 Bonn, Garet                    SPRUCE GROVE  AB  CAN       8/28  M55-59   808   25  681   46:46  2:28   9:03   5  248 2:56:41  31.9    2:52  16  522 2:14:20  6:22         
  436     06:09:42 Strong, Jeff                   RED DEER      AB  CAN      33/57  M50-54   772   30  519   42:12  2:14  10:41  33  427 3:08:32  29.9    7:17  26  353 2:01:03  5:45         
  437     06:09:44 Larke, Don                     CALGARY       AB  CAN      52/87  M40-44   291   47  418   39:48  2:06   5:55  53  413 3:07:24  30.1    3:00  58  518 2:13:39  6:21         
  438     06:09:50 Lemmens, Barbara               FORT SASKATCC AB  CAN      15/37  W25-29   364   20  421   39:52  2:06   3:50  14  490 3:13:15  29.2    2:13  16  476 2:10:41  6:12         
  439     06:09:54 Creed, Brian                   CALGARY       AB  CAN      57/76  M30-34    90   62  502   41:51  2:13   6:36  45  352 3:03:27  30.7    2:17  63  538 2:15:45  6:26         
  440     06:10:26 Smith, Eric                    CALGARY       AB  CAN       9/28  M55-59   790   26  729   49:25  2:37  11:43  14  450 3:10:25  29.6    7:24   4  221 1:51:31  5:18         
  441     06:10:41 Navikenas, Markus              CALGARY       AB  CAN      79/115 M35-39   190   62  460   40:45  2:09   5:16  94  587 3:22:26  27.9    3:48  60  317 1:58:28  5:37         
  442     06:10:47 Yzerman Baker, Martine         CALGARY       AB  CAN      28/63  W35-39   456    1   60   30:53  1:38   5:47  27  433 3:08:59  29.8    2:44  47  598 2:22:25  6:45         
  443     06:10:56 Serwe, Brandon                 CAMPBELLSPORT WI  USA      13/21  M18-24   598   14  354   38:43  2:03   6:44   6  150 2:48:28  33.5    1:59  20  672 2:35:04  7:21         
  444     06:10:56 Wilson, Graham                 RED DEER      AB  CAN      58/76  M30-34    68   51  384   39:12  2:04   6:19  65  539 3:18:03  28.5    4:11  48  382 2:03:14  5:51         
  445     06:11:01 Gingrich, Sara                 DALLAS        TX  USA       8/16  W18-24   326    9  374   39:02  2:04   4:38  10  544 3:18:22  28.4    1:45  10  442 2:07:16  6:02         
  446     06:11:10 Bichsel, George                CALGARY       AB  CAN       2/3   M65-69   830    1  582   43:47  2:19   6:42   2  304 3:00:23  31.3    3:11   2  552 2:17:08  6:30         
  447     06:11:19 Sherman, Leanne                CALGARY       AB  CAN      29/63  W35-39   458   59  753   52:50  2:47   6:43  30  449 3:10:11  29.7    2:44  17  325 1:58:54  5:39         
  448     06:11:24 Botterill, Carolin             CALGARY       AB  CAN      14/34  W40-44   511   14  426   39:58  2:07   6:18  15  508 3:15:31  28.8    3:08  13  434 2:06:30  6:00         
  449     06:11:39 Wiser, Conrad                  LONGMONT      CO  USA       4/10  M60-64   824    8  638   45:08  2:23   6:42   2  246 2:56:34  31.9    2:10   6  585 2:21:08  6:42         
  450     06:11:40 Schaffer, Kris                 EDMONTON      AB  CAN      30/63  W35-39   444   50  633   45:00  2:23   4:45  35  501 3:14:45  29.0    2:35  24  402 2:04:37  5:55         
  451     06:11:53 David, Dionysius               CALGARY       AB  CAN      80/115 M35-39   189   59  434   40:05  2:07  13:12  54  268 2:58:08  31.7    5:12  84  531 2:15:18  6:25         
  452     06:11:53 Troy, Chris                    CALGARY       AB  CAN      38/62  M45-49   699   35  474   41:02  2:10   4:56  39  436 3:09:18  29.8    3:15  44  515 2:13:24  6:20         
  453     06:12:06 Lewis, Jason                   SAN DIEGO     CA  USA      53/87  M40-44   248   40  340   38:26  2:02   7:27  52  408 3:06:51  30.2    4:44  59  526 2:14:39  6:23         
  454     06:12:09 Bertrand, Curtis               CALGARY       AB  CAN      81/115 M35-39   124   61  459   40:33  2:09   7:42  88  510 3:15:58  28.8    3:51  70  393 2:04:08  5:53         
  455     06:12:26 Schuman, Philip                CALGARY       AB  CAN      14/21  M18-24   578    7  176   35:06  1:51   6:51  14  452 3:10:31  29.6    3:36  16  545 2:16:24  6:28         
  456     06:13:03 Jalbert, Todd                  MEDICINE HAT  AB  CAN      39/62  M45-49   665   53  677   46:32  2:27  11:46  13  179 2:50:48  33.0    6:50  46  553 2:17:09  6:30         
  457     06:13:09 Polehoykie, Barbara            FORT ST JOHN  BC  CAN       9/24  W45-49   538    7  275   37:12  1:58   5:25  16  623 3:25:48  27.4    4:04   7  346 2:00:42  5:44         
  458     06:13:22 Kotyk, Alex                    EDMONTON      AB  CAN      15/34  W40-44   514   27  699   47:40  2:31   8:39  10  431 3:08:56  29.9    3:11  12  408 2:04:59  5:56         
  459     06:13:27 Maxwell, James                 DAWSON CREEK  BC  CAN      34/57  M50-54   774   24  387   39:15  2:04   9:08  19  285 2:59:12  31.5    3:54  44  595 2:22:01  6:44         
  460     06:13:46 Brown, Sean                    CALGARY       AB  CAN      82/115 M35-39   106   85  596   44:10  2:20   6:22 103  665 3:31:12  26.7    3:18  34  183 1:48:45  5:10         
  461     06:14:06 Nieviadomy, Nathan             SASKATOON     SK  CAN      59/76  M30-34    29   40  291   37:29  1:59   5:18  49  380 3:05:20  30.4    2:51  68  606 2:23:09  6:48         
  462     06:14:08 Reimer, Lisa                   CALGARY       AB  CAN      20/47  W30-34   410   12  265   37:02  1:57   7:12  15  461 3:11:21  29.5    2:49  30  539 2:15:46  6:27         
  463     06:14:22 Coppens, Patrick               GRANDE PRAIRI AB  CAN      10/28  M55-59   807    7  325   38:08  2:01  10:27  15  466 3:11:38  29.4    5:48  12  449 2:08:22  6:05         
  464     06:14:22 Burridge, Dan                  CALGARY       AB  CAN      83/115 M35-39   161   92  650   45:30  2:24   4:51  58  290 2:59:31  31.4    2:01  89  599 2:22:32  6:46         
  465     06:14:25 Dean, Brandee                  MEDICINE HAT  AB  CAN      21/47  W30-34   407    9  188   35:23  1:52   5:27  16  462 3:11:24  29.5    3:03  32  570 2:19:11  6:36         
  466     06:14:40 Sorensen, Jason                CALGARY       AB  CAN      84/115 M35-39   181   91  632   45:00  2:23   9:21  89  520 3:16:30  28.7    3:04  64  349 2:00:46  5:44         
  467     06:14:42 Graham, Shana                  REGINA        SK  CAN      31/63  W35-39   442   12  212   35:53  1:54   5:12  38  521 3:16:32  28.7    3:48  39  513 2:13:19  6:20         
  468     06:14:53 Colten, Cynthia                CRANBROOK     BC  CAN      16/34  W40-44   483    8  290   37:29  1:59   7:35  19  568 3:20:02  28.2    5:50  10  391 2:03:58  5:53         
  469     06:14:58 Kondra, Andrew                 CALGARY       AB  CAN      54/87  M40-44   959   53  437   40:08  2:07   9:13  47  343 3:02:48  30.9    4:23  62  565 2:18:28  6:34         
  470     06:15:03 Lintott, Neana                 FORT SASKATCH AB  CAN      32/63  W35-39   425   23  333   38:21  2:02   6:33  34  494 3:13:45  29.1    5:40  35  477 2:10:45  6:12         
  471     06:15:04 Wachtler, Marnie               CALGARY       AB  CAN      22/47  W30-34   402    3  114   33:13  1:45   6:40  25  571 3:20:36  28.1    3:10  23  488 2:11:28  6:14         
  472     06:15:15 Cleyn, Peter                   CALGARY       AB  CAN      11/28  M55-59   816   18  528   42:27  2:15   7:40  18  496 3:14:00  29.1    4:43  11  433 2:06:28  6:00         
  473     06:15:29 Yakymyshyn, Will               CALGARY       AB  CAN      35/57  M50-54   983   50  716   48:30  2:34  13:07  27  367 3:04:25  30.6    4:38  32  407 2:04:49  5:55         
  474     06:15:49 Fox, Michael                   CALGARY       AB  CAN      42/62  M25-29   913   49  639   45:09  2:23   6:55  39  456 3:10:47  29.6    3:20  43  465 2:09:39  6:09         
  475     06:15:53 Dibb, Maria                    INVERMERE     BC  CAN      10/24  W45-49   894   13  398   39:24  2:05   5:49  17  658 3:30:32  26.8    2:17   6  308 1:57:53  5:36         
  476     06:15:59 Bassi, Tanya                   LONDON            GBR      23/47  W30-34   865   29  518   42:11  2:14   4:30  32  655 3:29:46  26.9    2:40  14  294 1:56:54  5:33         
  477     06:16:02 Turgeon, Ashley                CALGARY       AB  CAN      16/37  W25-29   337   35  717   48:31  2:34   6:24  17  578 3:21:30  28.0    2:11  13  305 1:57:28  5:34         
  478     06:16:16 Daszkowski, Alice              CALGARY       AB  CAN      11/24  W45-49   527    6  270   37:04  1:58   7:21   9  483 3:12:38  29.3    3:31  12  537 2:15:44  6:26         
  479     06:16:18 Chahl, Tara                    EDMONTON      AB  CAN      24/47  W30-34   864   31  562   43:11  2:17   7:55  33  676 3:33:07  26.5    4:44   5  168 1:47:23  5:06         
  480     06:16:25 Jessey, Mary                   CALGARY       AB  CAN      33/63  W35-39   454   10  163   34:41  1:50   5:56  43  593 3:22:50  27.8    3:17  33  467 2:09:43  6:09         
  481     06:16:27 Tardif, Andre                  CALGARY       AB  CAN      40/62  M45-49   974   22  310   37:43  2:00   7:39  25  299 3:00:10  31.3    5:13  52  623 2:25:44  6:55         
  482     06:16:28 Thompson, Alison               VANCOUVER     BC  CAN      34/63  W35-39   463   20  306   37:41  1:59   6:03  36  502 3:14:46  29.0    2:11  40  542 2:15:50  6:27         
  483     06:16:57 Brander, Cam                   CALGARY       AB  CAN      55/87  M40-44   958   60  537   42:34  2:15   6:08  62  484 3:12:39  29.3    2:38  55  506 2:13:00  6:19         
  484     06:17:05 Hickle, Jonathan               EDMONTON          CAN      43/62  M25-29   603   42  500   41:45  2:12   6:58  41  498 3:14:18  29.0    2:41  44  485 2:11:25  6:14         
  485     06:17:12 Armstrong, Dave                CANMORE       AB  CAN      56/87  M40-44   279   16  183   35:14  1:52   6:38  58  445 3:09:58  29.7    4:40  65  582 2:20:43  6:41         
  486     06:17:36 Davies, Erin                   CALGARY       AB  CAN      17/37  W25-29   850   19  412   39:42  2:06  10:36  16  553 3:18:53  28.4    5:01  15  384 2:03:26  5:51         
  487     06:17:36 Berezowski, Ed                 SASKATOON     SK  CAN      12/28  M55-59   994   11  413   39:42  2:06  10:37  23  552 3:18:51  28.4    5:01   8  385 2:03:26  5:51         
  488     06:17:39 Findlay, Daniel                CALGARY       AB  CAN      60/76  M30-34    28   67  552   43:02  2:16   6:44  57  451 3:10:28  29.6    5:26  60  496 2:12:01  6:16         
  489     06:17:52 Keller, Catherine              CALGARY       AB  CAN      35/63  W35-39  1020   42  577   43:26  2:18   9:01  42  554 3:18:54  28.4    5:33  18  352 2:00:58  5:44         
  490     06:18:09 Botterill, Dave                CALGARY       AB  CAN      41/62  M45-49   719   54  736   49:42  2:37   9:23  40  439 3:09:34  29.8    3:47  39  423 2:05:44  5:58         
  491     06:18:12 Fonseca, Abraham               LEON              MEX      57/87  M40-44   267   68  635   45:03  2:23   8:33  59  463 3:11:33  29.4    4:16  52  455 2:08:49  6:07         
  492     06:18:37 Attridge, Glenn                TORONTO       ON  CAN      61/76  M30-34    56   49  370   38:58  2:04   5:16  62  476 3:12:19  29.3    3:16  64  567 2:18:50  6:35         
  493     06:18:40 Allen, Moka                    LAGUNA BEACH  CA  USA       9/16  W18-24   331   15  481   41:20  2:11   7:19   7  504 3:15:09  28.9    5:31  11  462 2:09:22  6:08         
  494     06:18:51 Schuld, Christopher            VANCOUVER     BC  CAN      62/76  M30-34   104   76  755   52:54  2:48   6:41  60  472 3:12:00  29.4    1:46  53  416 2:05:32  5:57         
  495     06:19:17 Rooney, Kevin                  OAKVILLE      ON  CAN      42/62  M45-49   980   44  545   42:47  2:16   6:51  52  590 3:22:40  27.8    6:45  32  338 2:00:17  5:43         
  496     06:19:30 Rautenbach, Derick             RED DEER COUN AB  CAN      58/87  M40-44   968   51  430   40:01  2:07   7:47  75  639 3:27:43  27.2    3:31  40  344 2:00:30  5:43         
  497     06:19:38 Scheirman, Chad                CALGARY       AB  CAN      63/76  M30-34   929   63  516   42:10  2:14   5:39  64  537 3:17:50  28.5    4:53  56  459 2:09:07  6:08         
  498     06:20:08 De Boon, Samantha              CALGARY       AB  CAN      25/47  W30-34   858   13  319   37:59  2:00   5:10  26  572 3:20:45  28.1    2:53  29  514 2:13:22  6:20         
  499     06:20:22 McLean, Boh                    BLACKFOOT     AB  CAN      13/28  M55-59   800   23  618   44:36  2:21   8:36   9  360 3:04:00  30.7    3:53  20  572 2:19:18  6:37         
  500     06:20:32 Schneider, Eric                THOUSAND OAKS CA  USA      43/62  M45-49   674   27  362   38:49  2:03  11:23  53  613 3:24:51  27.5    9:41  22  283 1:55:49  5:30         
  501     06:20:46 Rinsma, Bill                   VANCOUVER     BC  CAN      14/28  M55-59   801   12  452   40:26  2:08   8:46  11  423 3:08:21  29.9    4:14  19  569 2:19:02  6:36         
  502     06:20:58 Reid, Erin                     CALGARY       AB  CAN      36/63  W35-39   426   41  561   43:10  2:17   8:53  33  479 3:12:28  29.3    3:31  37  505 2:12:58  6:19         
  503     06:21:05 Nixon, Jarrett                 CALGARY       AB  CAN      44/62  M25-29   651   30  274   37:11  1:58   6:29  44  511 3:16:00  28.8    4:18  49  554 2:17:09  6:30         
  504     06:21:11 Kidd, Michael                  CALGARY       AB  CAN      15/28  M55-59   792   15  491   41:33  2:12   8:31  21  518 3:16:26  28.7    4:45  14  468 2:09:57  6:10         
  505     06:21:16 Matter Hutter, Barbara         BAAR              CHE      26/47  W30-34   863   24  464   40:51  2:09  10:06  18  473 3:12:09  29.4    4:59  28  511 2:13:13  6:19         
  506     06:21:21 Spinks, Ben                    MIDLAND       TX  USA      15/21  M18-24   579   20  685   46:53  2:29   7:00  15  488 3:13:10  29.2    2:32  15  492 2:11:47  6:15         
  507     06:21:23 Nielsen, Theresa               CALGARY       AB  CAN      10/16  W18-24   840   14  478   41:16  2:11   7:20  12  585 3:22:23  27.9    3:26   9  439 2:07:00  6:02         
  508     06:21:32 Walter, Bruce                  LETHBRIDGE    AB  CAN      44/62  M45-49   982   46  565   43:13  2:17   5:51  37  410 3:07:10  30.1    3:52  49  591 2:21:28  6:43         
  509     06:22:15 Terry, Karla                   MOOSE JAW     SK  CAN      27/47  W30-34   383    6  154   34:20  1:49   6:49  30  649 3:29:11  27.0    3:23  21  453 2:08:34  6:06         
  510     06:22:21 Johnson, Jacque-Lynne          VANCOUVER     BC  CAN      37/63  W35-39   421   34  470   40:57  2:10   8:51  24  393 3:06:11  30.3    5:41  43  581 2:20:43  6:41         
  511     06:23:08 Stevens, Scott                 TABER         AB  CAN      85/115 M35-39   160   97  686   46:56  2:29   3:59  99  627 3:26:22  27.3    2:56  68  380 2:02:58  5:50         
  512     06:23:28 Sutherland, Donna              WINNIPEG      MB  CAN      17/34  W40-44   880   29  709   48:02  2:32   4:30  18  550 3:18:48  28.4    2:06  15  470 2:10:03  6:10         
  513     06:23:31 Wiliams, Richard               SAGLE         ID  USA      36/57  M50-54   993   45  665   46:15  2:27   9:06  28  378 3:05:15  30.4    7:56  38  528 2:15:01  6:24         
  514     06:23:36 Charlton, Sheila               EDMONTON      AB  CAN      11/16  W18-24   332   10  379   39:07  2:04   6:36  11  565 3:19:48  28.2    3:33  12  523 2:14:35  6:23         
  515     06:23:41 Anderlik, Gina                 CHESTEMERE    AB  CAN      18/34  W40-44   883   28  703   47:50  2:32   9:43  22  594 3:23:02  27.8    8:18   5  271 1:54:51  5:27         
  516     06:23:48 Spaeth, Ken                    RIVER FALLS   WI  USA      16/28  M55-59   795   29  804 1:24:03  4:26   8:04   4  205 2:53:12  32.6    4:45   5  256 1:53:46  5:24         
  517     06:23:50 MacKenzie, Shelley             REGINA BEACH  SK  CAN      12/24  W45-49   530   18  521   42:14  2:14   5:18  10  524 3:16:47  28.7    2:54  13  548 2:16:39  6:29         
  518     06:23:51 Brecher, Bryan                 HENDERSON     NV  USA      86/115 M35-39   117   12   90   32:23  1:43   6:37  84  459 3:10:54  29.5    5:34  96  636 2:28:26  7:03         
  519     06:23:55 Hefler, John                   KANATA        ON  CAN      17/28  M55-59   786    6  261   37:00  1:57   9:16  24  555 3:19:01  28.3    7:01  15  490 2:11:38  6:15         
  520     06:24:01 Hawkes, Rene                   NEPEAN        ON  CAN      16/21  M18-24   591   13  346   38:39  2:03   7:58  17  606 3:24:09  27.6    2:54  13  473 2:10:23  6:11         
  521     06:24:15 Zwarych, Kelly                 CALGARY       AB  CAN      59/87  M40-44   277   83  749   51:14  2:42  11:20  60  468 3:11:49  29.4    5:46  46  394 2:04:08  5:53         
  522     06:24:24 Clifford, Sherri               DAUPHIN       MB  CAN      38/63  W35-39   449   49  630   44:59  2:23   4:10  44  596 3:23:07  27.8    2:41  32  463 2:09:29  6:09         
  523     06:24:44 Jackman, Carla                 CALGARY       AB  CAN      39/63  W35-39   415   33  458   40:32  2:08   6:01  31  465 3:11:37  29.4    2:15  49  613 2:24:20  6:51         
  524     06:25:06 Hamilton, Kendrick             SASKATOON     SK  CAN      64/76  M30-34   100   24  169   34:57  1:51  11:05  73  663 3:31:02  26.7    3:37  51  400 2:04:27  5:54         
  525     06:25:09 Teichroeb, Aaron               AIRDRIE       AB  CAN      45/62  M25-29   611   39  402   39:29  2:05   9:16  43  509 3:15:42  28.8    4:10  47  546 2:16:33  6:29         
  526     06:25:27 Jeans, Kathryn                 CALGARY       AB  CAN      19/34  W40-44   495   30  714   48:20  2:33   5:59  25  633 3:26:40  27.3    4:12   8  339 2:00:18  5:43         
  527     06:25:30 Gossmann, Pamela               COCHRANE      AB  CAN      13/24  W45-49   531   19  667   46:21  2:27   6:48  12  569 3:20:19  28.2    3:30  11  452 2:08:34  6:06         
  528     06:25:45 Irvine, James                  LARONGE       SK  CAN      18/28  M55-59   810   17  515   42:09  2:14   6:37  17  495 3:13:51  29.1    3:46  21  573 2:19:25  6:37         
  529     06:25:53 Kolba, Dennis                  CALGARY       AB  CAN      19/28  M55-59  1030   21  594   44:09  2:20   9:48  26  598 3:23:37  27.7    4:20   9  392 2:04:01  5:53         
  530     06:25:55 Fuller, Glen                   VICTORIA      BC  CAN      45/62  M45-49   681   42  517   42:11  2:14   7:02  43  481 3:12:30  29.3    2:25  50  594 2:21:50  6:44         
  531     06:25:58 Mahon, Layne                   VICTORIA      BC  CAN      46/62  M45-49   709   52  661   46:08  2:26   8:06  42  470 3:12:00  29.4    2:43  45  551 2:17:04  6:30         
  532     06:25:59 Allard, Gerald                 CALGARY       AB  CAN      20/28  M55-59   799   14  484   41:26  2:11   8:24  19  507 3:15:17  28.9    3:24  18  557 2:17:31  6:32         
  533     06:26:00 Greene, Richard                KNOXVILLE     TN  USA      65/76  M30-34   920   74  720   48:56  2:35   5:29  70  625 3:25:52  27.4    2:26  49  383 2:03:20  5:51         
  534     06:26:01 Hall, Weston                   DELTA         BC  CAN      46/62  M25-29   639   36  352   38:43  2:03   5:57  54  693 3:35:04  26.2    5:58  35  341 2:00:21  5:43         
  535     06:26:15 Mason, Trudi                   LETHBRIDGE    AB  CAN      20/34  W40-44   493   10  389   39:16  2:04   4:57  23  620 3:25:32  27.4    3:17  19  512 2:13:15  6:19         
  536     06:26:20 Landero, Jennifer              CALGARY       AB  CAN      18/37  W25-29   360   26  567   43:15  2:17   5:32  19  592 3:22:47  27.8    3:27  17  483 2:11:19  6:14         
  537     06:26:23 Diez, Rodolfo                  MEXICO, DF        MEX      47/62  M45-49   978   55  761   53:38  2:50   5:54  54  615 3:25:10  27.5    3:26  27  314 1:58:18  5:37         
  538     06:27:08 Hardiman, Wade                 COCHRANE      AB  CAN      60/87  M40-44   307   77  707   47:59  2:32   7:46  61  471 3:12:00  29.4    3:49  60  533 2:15:35  6:26         
  539     06:27:20 Barker, Paul                   CALGARY       AB  CAN      61/87  M40-44   317   26  235   36:17  1:55   8:37  77  661 3:30:45  26.8    6:42  48  409 2:05:01  5:56         
  540     06:27:51 Krzywosz, Natalia              CALGARY       AB  CAN      12/16  W18-24   322   16  708   48:01  2:32   7:02  13  607 3:24:11  27.6    3:35   6  412 2:05:04  5:56         
  541     06:28:34 Austin, Lindsey                BANFF         AB  CAN      28/47  W30-34   372   30  520   42:12  2:14   6:31  29  605 3:24:00  27.6    3:20  25  501 2:12:33  6:17         
  542     06:29:08 Gillespie, Mark                CALGARY       AB  CAN      87/115 M35-39   948   68  488   41:33  2:12   9:55  65  325 3:01:43  31.0    6:37  98  640 2:29:22  7:05         
  543     06:29:09 Brown, Lesley                  LETHBRIDGE        CAN      21/34  W40-44   512   22  605   44:25  2:21   7:21  17  534 3:17:44  28.5    3:02  22  547 2:16:38  6:29         
  544     06:29:13 Masik, Greg                    ST. ALBERT    AB  CAN      37/57  M50-54   759   39  578   43:35  2:18   8:29  51  679 3:33:11  26.5    2:29  28  364 2:01:32  5:46         
  545     06:29:16 Fraser, Michael                CALGARY       AB  CAN      62/87  M40-44   309   48  422   39:54  2:06   5:43  48  350 3:03:24  30.8    3:05  73  684 2:37:12  7:27         
  546     06:29:41 Laqua, Gordon                  CALGARY       AB  CAN      48/62  M45-49   976   62  790 1:02:36  3:18   8:42  47  500 3:14:32  29.0    2:49  34  354 2:01:03  5:45         
  547     06:29:46 Eveleigh, Darren               LETHBRIDGE    AB  CAN      88/115 M35-39   949   70  507   42:01  2:13   7:53  91  560 3:19:24  28.3    2:34  87  561 2:17:55  6:33         
  548     06:29:54 Olsen, Rusty                   VANCOUVER     BC  CAN      89/115 M35-39   937   58  431   40:02  2:07   4:52  90  523 3:16:46  28.7    3:11  93  619 2:25:04  6:53         
  549     06:29:55 Muirhead, Gillian              CALGARY       AB  CAN      19/37  W25-29   346    4   81   32:01  1:42   7:08  27  683 3:33:45  26.4    3:31  19  517 2:13:32  6:20         
  550     06:30:01 Ellis, Rob                     EDMONTON      AB  CAN      21/28  M55-59   811   16  510   42:03  2:13   9:06  13  438 3:09:23  29.8    5:27  22  612 2:24:03  6:50         
  551     06:30:03 McConnell, Erin                CALGARY       AB  CAN      29/47  W30-34   401   21  411   39:41  2:06   5:37  27  576 3:21:16  28.0    2:10  33  588 2:21:22  6:42         
  552     06:30:19 Kujala, Shelanda               CALGARY       AB  CAN      40/63  W35-39   870   46  626   44:52  2:22   6:16  50  657 3:30:00  26.9    3:28  27  424 2:05:45  5:58         
  553     06:30:23 Tcherni, Marly                 REGINA        SK  CAN      41/63  W35-39   432   32  457   40:31  2:08   7:26  47  622 3:25:47  27.4    3:36  38  508 2:13:05  6:19         
  554     06:30:24 Lajeunesse, Laren              CALGARY       AB  CAN      63/87  M40-44   289   81  738   49:49  2:38   5:04  66  545 3:18:26  28.4    4:02  56  507 2:13:04  6:19         
  555     06:30:32 Bosma, John                    COCHRANE      AB  CAN      49/62  M45-49   700   47  588   44:01  2:19   8:56  44  486 3:12:51  29.2    3:49  48  583 2:20:57  6:41         
  556     06:30:56 Sadler, Matthew                CALGARY       AB  CAN      47/62  M25-29   635   11   91   32:24  1:43   5:20  50  595 3:23:04  27.8    4:28  52  622 2:25:41  6:55         
  557     06:31:00 Goossen, Marv                  BRANDON       MB  CAN      38/57  M50-54   752   49  697   47:28  2:30   7:34  43  549 3:18:48  28.4    5:55  35  480 2:11:16  6:14         
  558     06:31:33 Decker, James                  CALGARY       AB  CAN      48/62  M25-29   912   50  643   45:15  2:23   9:40  51  624 3:25:51  27.4    8:22  36  372 2:02:27  5:49         
  559     06:31:40 Clarke, Paul                   CALGARY       AB  CAN      66/76  M30-34    33   25  172   35:00  1:51   7:34  66  556 3:19:05  28.3    3:25  70  631 2:26:38  6:57         
  560     06:31:46 Bush, Nicole                   FERNIE        BC  CAN      22/34  W40-44   878   25  654   45:42  2:25   7:03  21  591 3:22:41  27.8    5:02  17  484 2:11:19  6:14         
  561     06:32:07 Bridgman, Craig                CALGARY       AB  CAN      90/115 M35-39   935  101  718   48:48  2:35   5:43  96  600 3:23:41  27.7    2:18  79  491 2:11:39  6:15         
  562     06:32:09 Handsaeme, Sherry              LETHBRIDGE    AB  CAN      14/24  W45-49   521    9  364   38:54  2:03   5:49  13  581 3:21:34  28.0    2:26  16  608 2:23:29  6:48         
  563     06:32:26 Attrill, Erin                  CALGARY           CAN      23/34  W40-44   484   17  540   42:41  2:15   6:48  20  582 3:22:07  27.9    4:43  21  543 2:16:09  6:28         
  564     06:32:44 O'Rourke, Ross                 CALGARY       AB  CAN      91/115 M35-39   125   82  568   43:16  2:17   7:18  83  454 3:10:37  29.6    2:59  97  637 2:28:36  7:03         
  565     06:33:06 Price, Ken                     LANGLEY       BC  CAN      64/87  M40-44   245   24  644   45:16  2:23   5:58  27  647 3:28:59  27.0    4:21  13  454 2:08:35  6:06         
  566     06:33:30 Doll, Rick                     CALGARY       AB  CAN       5/10  M60-64   825    6  580   43:41  2:18  10:06   5  546 3:18:30  28.4    6:40   3  525 2:14:35  6:23         
  567     06:33:36 Pykerman, Karen                KENORA        ON  CAN      20/37  W25-29   334   16  255   36:46  1:57   6:00  21  643 3:28:22  27.1    3:43  22  566 2:18:46  6:35         
  568     06:33:42 Pollard, Xahra                 SANTA MONICA  CA  USA      30/47  W30-34   398   16  351   38:42  2:03   6:09  36  705 3:37:51  25.9    3:00  20  447 2:08:03  6:05         
  569     06:33:55 Chamberland, Tanya             CANMORE       AB  CAN      24/34  W40-44   499   26  670   46:23  2:27   5:43  16  512 3:16:03  28.8    6:13  23  575 2:19:35  6:37         
  570     06:34:00 Boyd, Emily                    EDMONTON      AB  CAN      31/47  W30-34   385   28  503   41:53  2:13   6:45  23  559 3:19:24  28.3    2:40  34  607 2:23:20  6:48         
  571     06:34:22 Essar, Corey                   LAC LA BICHE  AB  CAN      65/87  M40-44   244   80  737   49:45  2:38   7:22  74  628 3:26:22  27.3    6:15  47  404 2:04:41  5:55         
  572     06:34:23 Li, Patrick                    CALGARY       AB  CAN      17/21  M18-24   581    8  186   35:22  1:52   4:50  18  636 3:27:16  27.2    2:16  17  615 2:24:41  6:52         
  573     06:34:38 Botsford, Briana               BANFF         AB  CAN      13/16  W18-24   328    5  119   33:20  1:46   6:01  14  629 3:26:22  27.3    3:03  13  627 2:25:54  6:55         
  574     06:34:55 Campbell, Ronald               CALGARY       AB  CAN      92/115 M35-39   201  102  721   49:01  2:35   8:11  87  499 3:14:19  29.0    7:36  85  541 2:15:49  6:27         
  575     06:34:55 Regimbald, Adrien              EDMONTON      AB  CAN      67/76  M30-34   919   72  690   47:06  2:29   9:52  61  474 3:12:11  29.3    3:46  67  596 2:22:02  6:44         
  576     06:35:01 MacGregor, David               CALGARY       AB  CAN      66/87  M40-44   275   73  662   46:09  2:26   6:29  56  432 3:08:57  29.8    2:57  70  646 2:30:31  7:08         
  577     06:35:09 Robinson, Christine            CALGARY       AB  CAN      42/63  W35-39   871   47  628   44:55  2:22   6:27  41  543 3:18:22  28.4    2:44  48  600 2:22:43  6:46         
  578     06:35:21 Roginski, Peter                CANMORE       AB  CAN      39/57  M50-54   743   48  695   47:21  2:30  12:16  35  469 3:11:53  29.4    6:07  43  560 2:17:45  6:32         
  579     06:35:56 Helt, Hurricane                CHICAGO       IL  USA      67/87  M40-44   260   78  725   49:10  2:36   4:43  68  562 3:19:34  28.3    2:57  64  574 2:19:34  6:37         
  580     06:36:01 Penaranda, Jose                DORAL         FL  USA      40/57  M50-54   777   52  764   54:10  2:52   7:05  40  525 3:16:54  28.6    4:26  37  516 2:13:27  6:20         
  581     06:36:27 Morris, Thomas                 CALGARY       AB  CAN      22/28  M55-59   796    8  360   38:47  2:03   7:08  12  434 3:09:15  29.8    4:12  24  683 2:37:06  7:27         
  582     06:36:31 Lewis, Jonathan                CALGARY       AB  CAN      93/115 M35-39   934  109  757   53:12  2:48   8:16  92  573 3:20:50  28.1    5:43  76  451 2:08:33  6:06         
  583     06:37:18 Udahl, Brenda                  REGINA        SK  CAN       1/10  W55-59   565    2  546   42:47  2:16   7:44   2  644 3:28:39  27.0    3:05   2  529 2:15:04  6:25         
  584     06:37:40 Hill, Jen                      CALGARY       AB  CAN      43/63  W35-39   428    4  109   32:58  1:45   5:00  51  672 3:32:04  26.6    6:27  44  586 2:21:13  6:42         
  585     06:37:47 Hutter, Michael                BAAR              CHE      94/115 M35-39   946   71  509   42:03  2:13  10:08  74  375 3:05:06  30.5    4:17 102  677 2:36:16  7:25         
  586     06:37:59 Oga, Cheryl                    CALGARY       AB  CAN       4/19  W50-54   561   16  747   50:58  2:41   5:38   6  619 3:25:20  27.5    2:01   5  520 2:14:05  6:22         
  587     06:38:15 Gossmann, Dan                  COCHRANE      AB  CAN      50/62  M45-49   711   36  482   41:21  2:11   7:05  50  564 3:19:37  28.3    4:25  53  625 2:25:48  6:55         
  588     06:38:26 Coutts, Rick                   CALGARY       AB  CAN      41/57  M50-54   749   34  527   42:24  2:14  10:43  45  603 3:23:58  27.7    4:06  42  556 2:17:18  6:31         
  589     06:38:40 Prieto Higuera, Paulina        MEXICO CITY       MEX      32/47  W30-34   397   17  369   38:57  2:03   6:37  24  570 3:20:32  28.1    2:53  36  642 2:29:43  7:06         
  590     06:39:03 Younie, John                   ST. ALBERT    AB  CAN      42/57  M50-54   764   38  570   43:18  2:17   8:38  49  662 3:31:01  26.7    6:08  34  469 2:09:59  6:10         
  591     06:39:07 Uys, Cloete                    CALGARY       AB  CAN      43/57  M50-54   987   28  496   41:42  2:12   4:56  36  485 3:12:42  29.3    3:31  49  678 2:36:18  7:25         
  592     06:39:08 Williams, Paul                 CALGARY       AB  CAN      68/76  M30-34  1004   59  456   40:31  2:08   5:02  42  308 3:00:47  31.2    3:01  74  733 2:49:49  8:03         
  593     06:39:23 Bouffard, Jean-Francois        EDMONTON      AB  CAN      69/76  M30-34    41   54  416   39:46  2:06   5:55  71  626 3:26:17  27.3    5:48  66  592 2:21:39  6:43         
  594     06:39:35 Strutt, Kari                   CALGARY       AB  CAN      15/24  W45-49   893    8  361   38:49  2:03   8:34  15  617 3:25:12  27.5    4:16  15  601 2:22:46  6:46         
  595     06:40:03 Dabrowski, Christina           STONEY CREEK  ON  CAN      21/37  W25-29   359   22  480   41:19  2:11   9:11  24  671 3:31:59  26.6    2:51  20  527 2:14:45  6:24         
  596     06:40:06 Blevins, Nancy                 CALGARY       AB  CAN      16/24  W45-49   533   14  420   39:51  2:06   6:30  18  659 3:30:34  26.8    3:03  14  578 2:20:10  6:39         
  597     06:40:18 Ware, Tammy                    CHANDLER      AZ  USA      44/63  W35-39   466   37  542   42:44  2:15  11:17  57  690 3:34:29  26.3    2:47  31  458 2:09:04  6:07         
  598     06:40:45 Bibb, Patrick                  FORT WORTH    TX  USA      18/21  M18-24   584   15  407   39:36  2:06   5:56  20  730 3:43:37  25.2    2:41  12  456 2:08:57  6:07         
  599     06:40:54 Gillett, Christian             CALGARY       AB  CAN      44/57  M50-54   753   29  511   42:05  2:13   8:17  48  650 3:29:13  27.0    4:10  41  555 2:17:11  6:31         
  600     06:40:55 Hackenbrook, Brenda            RED DEER      AB  CAN       2/10  W55-59   573    5  689   47:05  2:29   8:44   4  685 3:33:53  26.4    4:08   1  440 2:07:08  6:02         
  601     06:41:04 Ohama, Shelly                  CALGARY       AB  CAN      45/63  W35-39   869   39  549   42:53  2:16   6:33  56  689 3:34:27  26.3    4:55  36  499 2:12:17  6:17         
  602     06:41:49 Henschell, Kevin               OKOTOKS       AB  CAN      68/87  M40-44   293   76  688   47:02  2:29   4:43  65  529 3:17:12  28.6    2:33  69  645 2:30:21  7:08         
  603     06:41:50 Clague, Wendy                  EDMONTON      AB  CAN      46/63  W35-39   471   27  425   39:57  2:07   5:45  52  673 3:32:04  26.6    2:42  45  589 2:21:25  6:43         
  604     06:41:53 Zwarych, Darrell               REGINA        SK  CAN      51/62  M45-49   667   20  303   37:37  1:59  13:06  57  734 3:44:44  25.1    6:35  29  330 1:59:52  5:41         
  605     06:41:57 Shirrell, Angela               DENVER        CO  USA      33/47  W30-34   396   42  713   48:19  2:33   7:48  35  692 3:34:46  26.3    3:49  19  441 2:07:16  6:02         
  606     06:42:12 Keen, Heather                  POST FALLS    ID  USA      22/37  W25-29   366   13  219   36:01  1:54   9:29  26  677 3:33:09  26.5    6:03  21  558 2:17:33  6:32         
  607     06:42:18 Duffy, James                   BARRIE        ON  CAN      23/28  M55-59   806   20  547   42:48  2:16   9:03  10  373 3:04:58  30.5    5:57  25  692 2:39:34  7:34         
  608     06:42:34 Greening, Walter               ROCKY MTN HOU AB  CAN      52/62  M45-49   661   33  461   40:46  2:09   9:06  46  497 3:14:08  29.1    3:35  54  671 2:35:00  7:21         
  609     06:43:50 MacDonald, Paul                LETHBRIDGE        CAN      19/21  M18-24   587   16  429   40:00  2:07   6:57  16  580 3:21:33  28.0    4:36  18  648 2:30:45  7:09         
  610     06:44:12 Rudd, Robert                   AIRDRIE       AB  CAN      70/76  M30-34    30   55  435   40:06  2:07   6:40  72  634 3:26:45  27.3    4:16  69  630 2:26:27  6:57         
  611     06:44:45 Spence, Cindy                  CALGARY       AB  CAN      47/63  W35-39   446   54  664   46:10  2:26   6:26  39  526 3:16:55  28.6    2:44  52  656 2:32:32  7:14         
  612     06:45:12 Munro, Sue                     CALGARY       AB  CAN       5/19  W50-54   551    7  526   42:23  2:14   8:28  11  698 3:35:51  26.1    4:26   6  521 2:14:06  6:22         
  613     06:45:39 Uys, Laurene                   AIRDRIE       AB  CAN      23/37  W25-29   339   18  388   39:15  2:04   6:07  18  584 3:22:17  27.9    4:46  28  660 2:33:16  7:16         
  614     06:45:39 Arkinstall, Phil               KAMLOOPS      BC  CAN      71/76  M30-34   918   60  462   40:47  2:09   6:33  69  611 3:24:43  27.6    4:10  72  641 2:29:29  7:06         
  615     06:45:39 Byrne, Natalie                 CHILLIWACK    BC  CAN      34/47  W30-34   403   22  428   40:00  2:07   5:05  22  551 3:18:49  28.4    3:02  39  689 2:38:46  7:32         
  616     06:45:41 Meshen, Robert                 MEDICINE HAT  AB  CAN      95/115 M35-39   933  112  780   59:01  3:07   6:04  97  618 3:25:16  27.5    2:53  81  500 2:12:30  6:17         
  617     06:45:46 Jorgensen, Amanda              VICTORIA      BC  CAN      24/37  W25-29   335   29  613   44:32  2:21   6:03  25  674 3:32:05  26.6    3:14  23  576 2:19:54  6:38         
  618     06:46:54 Singer, Dwayne                 CALGARY       AB  CAN      69/87  M40-44   241   84  770   55:30  2:56   7:16  67  557 3:19:07  28.3    3:41  66  587 2:21:22  6:42         
  619     06:46:54 Ayriss, Azra                   CALGARY       AB  CAN      48/63  W35-39   876   51  642   45:14  2:23   7:41  59  728 3:42:54  25.3    4:58  28  428 2:06:08  5:59         
  620     06:47:44 Delsnider, Allison             REGINA        SK  CAN       6/19  W50-54   546    6  445   40:18  2:08   7:40   9  664 3:31:12  26.7    4:33   9  611 2:24:03  6:50         
  621     06:48:04 Sundell-Dunkle, Kristy         RED DEER      AB  CAN      35/47  W30-34   862   27  490   41:33  2:12   7:50  31  653 3:29:30  26.9    3:06  35  628 2:26:06  6:56         
  622     06:48:04 Elliott, Wade                  CAMROSE       AB  CAN      45/57  M50-54   746   42  636   45:06  2:23   9:19  41  528 3:17:04  28.6    3:43  47  658 2:32:55  7:15         
  623     06:48:06 Olson, Braden                  CALGARY       AB  CAN      49/62  M25-29   602   44  574   43:22  2:17   5:52  29  336 3:02:20  30.9    4:04  61  736 2:52:30  8:11         
  624     06:48:47 Gormley, Paul                  DENVER        CO  USA      70/87  M40-44   966   69  645   45:18  2:24   9:35  71  604 3:24:00  27.6    3:06  67  632 2:26:52  6:58         
  625     06:49:16 Daniels, Sonja                 DULUTH        MN  USA      49/63  W35-39   441   52  652   45:40  2:25   5:05  45  602 3:23:58  27.7    3:33  50  649 2:31:03  7:10         
  626     06:49:21 Clark, Dennis                  CALGARY       AB  CAN      72/76  M30-34   926   75  722   49:01  2:35   9:01  67  558 3:19:18  28.3    2:53  71  639 2:29:10  7:05         
  627     06:50:07 Banister, Breanne              CALGARY       AB  CAN      25/37  W25-29   846   30  625   44:49  2:22   6:24  20  638 3:27:30  27.2    4:30  27  633 2:26:55  6:58         
  628     06:50:11 Nelson, Nancy-Grace            MEDICINE HAT  AB  CAN       7/19  W50-54   547   14  739   49:50  2:38   9:41   5  601 3:23:41  27.7    4:51   8  597 2:22:10  6:45         
  629     06:50:38 Poffenroth, Paul               CALGARY       AB  CAN       1/1   M70-74   833    1  687   47:00  2:29   7:38   1  686 3:34:02  26.4    3:35   1  564 2:18:25  6:34         
  630     06:50:47 Grange, Dave                   QUEBEC CITY   QC  CAN      96/115 M35-39   191   64  471   40:58  2:10   5:32  61  300 3:00:14  31.3    6:17 107  747 2:57:49  8:26         
  631     06:50:52 Wozney, Paul                   CALGARY       AB  CAN      97/115 M35-39   947   76  541   42:43  2:15   5:55 101  642 3:28:21  27.1    3:48  99  644 2:30:07  7:07         
  632     06:51:04 Escarcega, Raul                NAUCALPAN         MEX      71/87  M40-44   962   59  495   41:38  2:12   7:13  82  716 3:40:16  25.6    2:44  63  571 2:19:15  6:36         
  633     06:51:15 Wright, Cindy                  REGINA        SK  CAN      17/24  W45-49   524   21  710   48:05  2:32   6:56  11  538 3:18:00  28.5    3:53  18  668 2:34:24  7:20         
  634     06:51:57 Eusebio, Jeff                  CHULA VISTA   CA  USA      98/115 M35-39   167  106  743   50:35  2:40   6:02  85  460 3:11:14  29.5    2:36 105  703 2:41:31  7:40         
  635     06:52:12 Veg, Rob                       CRANBROOK     BC  CAN      99/115 M35-39   108   66  483   41:25  2:11   6:43  93  575 3:21:15  28.0    3:03 103  694 2:39:48  7:35         
  636     06:52:12 Thurber, Bruce                 MEDICINE HAT  AB  CAN      53/62  M45-49   669   37  489   41:33  2:12   6:25  51  577 3:21:26  28.0    2:37  56  696 2:40:15  7:36         
  637     06:52:24 Widmeyer, Chris                CINCINNATI    OH  USA      50/62  M25-29   617   46  579   43:37  2:18   9:59  53  670 3:31:54  26.6    4:01  50  602 2:22:55  6:47         
  638     06:52:31 Woodward, Robert               CALGARY       AB  CAN       6/10  M60-64   995    1  298   37:32  1:59   6:23   6  567 3:20:01  28.2    3:41   8  716 2:44:56  7:49         
  639     06:53:13 McFarlane, Gord                CALGARY       AB  CAN      46/57  M50-54   762   43  640   45:12  2:23   6:59  44  586 3:22:25  27.9    5:03  48  665 2:33:36  7:17         
  640     06:53:16 Lessoway, Vern                 CALGARY       AB  CAN       7/10  M60-64   826    2  392   39:21  2:05   6:08  10  718 3:40:24  25.6    4:22   7  604 2:23:03  6:47         
  641     06:53:37 Pewar, Kim                     CALGARY       AB  CAN       8/19  W50-54   543    5  297   37:32  1:59   7:07   8  656 3:29:56  26.9    3:14  13  675 2:35:50  7:24         
  642     06:53:45 Campbell, Angela               BLACKFALDS    AB  CAN      50/63  W35-39   872   28  438   40:10  2:07   7:29  48  630 3:26:28  27.3    7:36  51  654 2:32:03  7:13         
  643     06:53:58 Nielsen, Mark                  PRINCE GEORGE BC  CAN      54/62  M45-49   708   40  508   42:02  2:13   8:08  29  333 3:02:00  31.0    7:59  59  739 2:53:51  8:15         
  644     06:54:09 Moir, Rory                     CALGARY       AB  CAN      24/28  M55-59   802   27  735   49:40  2:37  10:00  20  514 3:16:06  28.8    6:02  23  655 2:32:23  7:14         
  645     06:54:28 Pelletier, Frankie             REGINA        SK  CAN       9/19  W50-54   549    8  536   42:34  2:15   7:48  13  714 3:40:12  25.6    6:00   7  562 2:17:56  6:33         
  646     06:55:02 Hann, Fred                     SYLVAN LAKE   AB  CAN      47/57  M50-54   735   35  529   42:28  2:15   8:20  37  515 3:16:08  28.8    4:34  52  708 2:43:35  7:46         
  647     06:55:29 Grimstad, Catherine            REGINA        SK  CAN      10/19  W50-54   896   15  740   50:08  2:39   5:25   4  588 3:22:34  27.8    3:01  12  667 2:34:23  7:19         
  648     06:56:39 Rafferty, Gerry                CALGARY       AB  CAN       8/10  M60-64   998   10  704   47:51  2:32  10:53   9  700 3:35:56  26.1    6:18   4  536 2:15:42  6:26         
  649     06:56:43 Stewart, Lynne                 CALGARY       AB  CAN       3/10  W55-59   574    3  609   44:28  2:21   8:39   3  645 3:28:55  27.0    5:38   3  638 2:29:05  7:04         
  650     06:56:53 Hollingsworth, Amy             LAKEFIELD     ON  CAN      25/34  W40-44   502   20  554   43:04  2:16   5:54  24  632 3:26:37  27.3    4:19  29  682 2:37:02  7:27         
  651     06:56:59 Myers, Norma                   SPOKANE       WA  USA       1/1   W60-64   576    1  615   44:33  2:21   7:48   1  695 3:35:13  26.2    3:11   1  629 2:26:16  6:56         
  652     06:56:59 Cevallos, Gontrand             MEXICO CITY       MEX      72/87  M40-44   256   27  236   36:17  1:55   7:09  72  608 3:24:21  27.6    5:36  76  710 2:43:37  7:46         
  653     06:56:59 Pullan, Cara                   EDMONTON      AB  CAN      36/47  W30-34   395   46  760   53:18  2:49   7:12  34  682 3:33:43  26.4    7:01  31  540 2:15:46  6:27         
  654     06:57:12 McClelland, Kevin              CALGARY       AB  CAN      55/62  M45-49   697   29  383   39:11  2:04   7:35  48  530 3:17:13  28.6    3:35  57  729 2:49:41  8:03         
  655     06:57:35 Dodds, Laura                   CALGARY       AB  CAN      26/37  W25-29   368   34  706   47:58  2:32  11:39  23  654 3:29:32  26.9    5:27  24  603 2:23:02  6:47         
  656     06:57:45 Stirling, Jeffrey              CALGARY       AB  CAN      51/62  M25-29   615   56  693   47:16  2:30   8:44  56  715 3:40:15  25.6    4:36  48  550 2:16:57  6:30         
  657     06:58:18 Gagnon, Colleen                GRANDE PRAIRI AB  CAN      11/19  W50-54   553    9  575   43:23  2:17   7:16  10  666 3:31:37  26.7    3:23  11  657 2:32:42  7:15         
  658     06:58:43 Rodriguez, Fausto              REGINA        SK  CAN     100/115 M35-39   114   94  657   45:48  2:25   4:29 104  675 3:32:22  26.6    2:32 100  664 2:33:34  7:17         
  659     06:58:45 Barnard, Cornel                BARRIERE      BC  CAN      52/62  M25-29   914   53  674   46:28  2:27   9:26  45  542 3:18:18  28.4    7:23  56  687 2:37:13  7:28         
  660     06:59:22 Rempel, Allen                  EDMONTON      AB  CAN      73/87  M40-44   955   32  287   37:25  1:59   7:17  70  597 3:23:30  27.7    4:50  79  718 2:46:21  7:54         
  661     06:59:29 Dyrkacz, Richard               WINNIPEG      MB  CAN      53/62  M25-29   909   51  660   46:02  2:26  10:44  61  768 3:59:34  23.5    6:46  31  292 1:56:25  5:32         
  662     06:59:52 Bradley, Anne                  ST. ALBERT    AB  CAN      12/19  W50-54   899   10  647   45:23  2:24   7:32   7  631 3:26:34  27.3    3:41  14  680 2:36:45  7:26         
  663     06:59:54 Chorney, Emily                 CALGARY       AB  CAN      27/37  W25-29   848   21  448   40:21  2:08   9:56  28  725 3:41:44  25.4    3:58  25  610 2:23:58  6:50         
  664     06:59:56 Homer, Lisa                    CALGARY       AB  CAN      18/24  W45-49   528   17  501   41:49  2:13   6:47  20  697 3:35:49  26.1    4:13  17  651 2:31:19  7:11         
  665     07:00:21 McCracken, Shelagh             OKOTOKS       AB  CAN      26/34  W40-44   482   12  417   39:47  2:06   9:44  27  719 3:40:28  25.6    4:35  26  626 2:25:48  6:55         
  666     07:01:37 Willett, Paul                  GIG HARBOR    WA  USA      48/57  M50-54  1028   27  477   41:11  2:11   7:41  39  522 3:16:34  28.7    5:26  54  734 2:50:45  8:06         
  667     07:01:43 Belhumeur, Katherine           GATINEAU      QC  CAN      51/63  W35-39   417   40  559   43:06  2:17   6:00  49  651 3:29:24  26.9    2:03  55  700 2:41:12  7:39         
  668     07:02:01 Kempster, Cody                 LETHBRIDGE    AB  CAN      54/62  M25-29   599   20  181   35:12  1:52   9:11  52  652 3:29:28  26.9    4:32  58  712 2:43:40  7:46         
  669     07:02:23 Rupcich, Maria                 WHITE CITY    SK  CAN      52/63  W35-39   477   24  341   38:27  2:02   7:00  54  680 3:33:18  26.4    4:42  54  691 2:38:57  7:32         
  670     07:02:23 Gingrich, Kelly                EDMONTON      AB  CAN      74/87  M40-44   243   64  595   44:09  2:20   7:40  69  574 3:21:10  28.0    4:33  78  715 2:44:54  7:49         
  671     07:02:33 Stewart, Marc                  DENVER        CO  USA     101/115 M35-39   175   88  614   44:33  2:21   5:37 100  635 3:27:08  27.2    3:50 104  701 2:41:27  7:40         
  672     07:02:59 Patel, Neetash                 CALGARY       AB  CAN     102/115 M35-39  1011  103  726   49:15  2:36   7:32 107  708 3:38:40  25.8    3:42  90  609 2:23:53  6:50         
  673     07:03:08 Colohan, Hugh                  CALGARY       AB  CAN      49/57  M50-54   986   51  727   49:17  2:36  12:25  47  616 3:25:11  27.5    4:36  46  652 2:31:40  7:12         
  674     07:03:21 Stewart, Jason                 WEYBURN       SK  CAN      73/76  M30-34    37   57  442   40:12  2:07   9:03  75  749 3:50:04  24.5    5:06  65  568 2:18:56  6:36         
  675     07:04:45 Goyetche, Marieka              CALGARY       AB  CAN      53/63  W35-39   452   60  754   52:52  2:47  11:51  53  678 3:33:09  26.5    6:31  42  579 2:20:23  6:40         
  676     07:04:54 St.Onge, Kim                   CALGARY       AB  CAN      37/47  W30-34   404   38  641   45:14  2:23   6:01  37  717 3:40:22  25.6    2:44  37  647 2:30:35  7:09         
  677     07:04:58 Braun, Kiel                    SWIFT CURRENT SK  CAN      55/62  M25-29   907   25  214   35:56  1:54   6:13  47  561 3:19:30  28.3    3:09  62  749 3:00:11  8:33         
  678     07:05:27 Polehoykie, Floyd              FORT ST. JOHN BC  CAN      50/57  M50-54   760   41  627   44:53  2:22   8:41  46  612 3:24:44  27.5    4:01  51  706 2:43:09  7:44         
  679     07:06:22 Haworth, Dawn                  OTTAWA        ON  CAN      27/34  W40-44   509   24  646   45:19  2:24   8:56  29  731 3:44:07  25.2    4:56  25  605 2:23:07  6:47         
  680     07:07:18 O'Keeffe, Patrick              BATTLEFORD    SK  CAN     103/115 M35-39   215  111  778   58:45  3:06  10:28  98  621 3:25:39  27.4    4:45  95  634 2:27:44  7:01         
  681     07:07:20 Hickle, Ian                    CALGARY       AB  CAN      20/21  M18-24   905   17  555   43:04  2:16   8:16  19  710 3:39:19  25.7    3:12  19  663 2:33:32  7:17         
  682     07:07:40 Pinckard, Keith                COPPELL       TX  USA      75/87  M40-44   273   67  624   44:46  2:22  10:06  73  609 3:24:28  27.6    7:17  74  699 2:41:04  7:38         
  683     07:07:58 Shewchuk, Lorie                SPRUCE GROVE  AB  CAN      54/63  W35-39   875   56  715   48:23  2:33   5:01  58  706 3:38:27  25.8    2:42  53  662 2:33:27  7:17         
  684     07:08:12 Penman, Jim                    OTATWA        ON  CAN      25/28  M55-59   812   13  463   40:49  2:09   7:21  25  589 3:22:34  27.8    7:47  26  730 2:49:42  8:03         
  685     07:08:25 Lodhar, Curtis                 CALGARY       AB  CAN     104/115 M35-39   148  104  728   49:24  2:36  10:29 108  712 3:39:37  25.7    3:57  92  617 2:25:01  6:53         
  686     07:08:33 Anderson, Micheal              CALGARY       AB  CAN      76/87  M40-44   312   74  676   46:29  2:27   7:01  81  711 3:39:24  25.7    3:42  71  653 2:31:59  7:13         
  687     07:09:25 Bramblett, Andrew              HUNTINGTON BE CA  USA      77/87  M40-44   970   75  680   46:37  2:28   9:24  78  669 3:31:51  26.6    8:38  72  659 2:32:58  7:15         
  688     07:09:47 Ortega, Edmundo                LEON              MEX      78/87  M40-44   319   86  781   59:06  3:07   9:41  76  641 3:28:18  27.1    3:02  68  643 2:29:43  7:06         
  689     07:10:13 Bannister, Carter              CALGARY       AB  CAN     105/115 M35-39   941   96  675   46:28  2:27   8:33 105  681 3:33:42  26.4    6:38 101  670 2:34:54  7:21         
  690     07:10:25 Morgan, Shannon                CALGARY       AB  CAN      28/37  W25-29   851   37  732   49:34  2:37   6:49  22  648 3:29:04  27.0    2:38  31  704 2:42:22  7:42         
  691     07:10:52 Ooi, Jennifer                  CALGARY       AB  CAN      38/47  W30-34   394   25  469   40:56  2:10   8:32  44  775 4:06:03  22.9    3:47  24  489 2:11:36  6:15         
  692     07:11:11 Jessee, Lorraine               CALGARY           CAN      13/19  W50-54   559   18  784 1:00:53  3:13  10:58  15  758 3:53:12  24.2    4:16   2  369 2:01:54  5:47         
  693     07:11:44 Mare, Stefanie                 KAMLOOPS      BC  CAN      29/37  W25-29   845   11  180   35:11  1:52   8:02  30  737 3:45:09  25.0    6:12  30  686 2:37:13  7:28         
  694     07:11:54 Wagner, Blair                  AIRDRIE       AB  CAN      51/57  M50-54   984   14  285   37:23  1:59   8:05  55  722 3:40:49  25.5    9:08  50  679 2:36:31  7:26         
  695     07:12:04 Mercer, Laura                  HENDERSON     NV  USA      28/34  W40-44   508   16  512   42:06  2:13   7:31  28  726 3:41:58  25.4    4:28  28  676 2:36:02  7:24         
  696     07:12:45 Patient, Steven                CALGARY       AB  CAN      56/62  M45-49   692   59  782   59:49  3:09  12:11  55  688 3:34:27  26.3    5:53  47  580 2:20:28  6:40         
  697     07:13:28 Wakelin, James                 CALGARY       AB  CAN      74/76  M30-34    92   73  711   48:12  2:33   8:50  68  583 3:22:07  27.9    6:06  73  724 2:48:15  7:59         
  698     07:13:56 Degutis, Dianne                CALGARY       AB  CAN      19/24  W45-49   537   10  377   39:04  2:04   8:43  19  667 3:31:40  26.6    5:44  21  725 2:48:47  8:00         
  699     07:14:38 Good, Trevor                   SASKATOON     SK  CAN     106/115 M35-39   218   78  551   42:57  2:16   6:39  77  420 3:08:05  30.0    4:24 109  763 3:12:35  9:08         
  700     07:14:42 Domanko, Jim                   CALGARY       AB  CAN      52/57  M50-54   782   55  783 1:00:19  3:11   8:32  52  694 3:35:06  26.2    4:59  45  624 2:25:48  6:55         
  701     07:14:57 Myers, Heather                 BANFF         AB  CAN      55/63  W35-39   429   48  629   44:56  2:22   5:40  32  477 3:12:20  29.3    2:21  59  760 3:09:42  9:00         
  702     07:16:17 Maday, Wayne                   SHERWOOD PARK AB  CAN     107/115 M35-39   209  113  791 1:03:49  3:22   9:32 106  691 3:34:43  26.3    3:24  91  616 2:24:51  6:52         
  703     07:17:31 Simpson, Jeff                  EDMONTON      AB  CAN      79/87  M40-44   268   65  603   44:19  2:20   7:43  79  687 3:34:12  26.3    3:40  81  722 2:47:39  7:57         
  704     07:17:34 Araneta, Leonardo              CALGARY       AB  CAN      56/62  M25-29   911   59  772   56:19  2:58   7:39  49  566 3:19:51  28.2    9:38  59  714 2:44:10  7:47         
  705     07:22:15 Braun, Wes                     LUMSDEN       SK  CAN      53/57  M50-54   779   53  765   54:17  2:52   7:28  50  668 3:31:41  26.6    3:15  53  717 2:45:37  7:51         
  706     07:22:48 Rautenbach, Louise             RED DEER COUN AB  CAN      56/63  W35-39   877   45  607   44:26  2:21   9:56  61  770 4:01:54  23.3    4:54  46  593 2:21:41  6:43         
  707     07:23:11 Hammerstad, Lorel              EDMONTON      AB  CAN      29/34  W40-44   501   21  583   43:47  2:19   7:26  32  763 3:55:37  23.9    2:57  27  661 2:33:26  7:17         
  708     07:23:30 Stevenson, Marie               CALGARY       AB  CAN      14/19  W50-54   554   17  763   54:01  2:51   8:06  14  746 3:48:10  24.7    4:53  10  635 2:28:22  7:02         
  709     07:24:16 Cannon, Deanne                 REGINA        SK  CAN      30/37  W25-29   852   27  591   44:04  2:20   5:33  34  767 3:57:36  23.7    3:18  29  666 2:33:47  7:18         
  710     07:24:47 Riou, Lisa                     FALLIS        AB  CAN      57/63  W35-39   469   58  750   52:03  2:45   6:30  46  610 3:24:41  27.6    4:18  57  745 2:57:17  8:25         
  711     07:26:05 Pittman, Cindy                 CALGARY       AB  CAN      20/24  W45-49  1021   12  396   39:24  2:05   7:54  14  614 3:25:01  27.5    4:56  23  758 3:08:54  8:58         
  712     07:26:11 Panzer, Jacob                  CAMPBELLSPORT WI  USA      57/62  M25-29   636   58  742   50:30  2:40  10:05  57  739 3:46:07  24.9    4:54  54  669 2:34:38  7:20         
  713     07:26:49 Duffy Atkin, Patricia          CALGARY       AB  CAN       4/10  W55-59   568    4  653   45:40  2:25   9:20   1  640 3:28:09  27.1    3:11   7  750 3:00:30  8:34         
  714     07:28:03 Connors, Earl                  CALGARY       AB  CAN      54/57  M50-54   781   57  800 1:11:00  3:45  19:31  53  703 3:37:19  26.0    4:38  40  534 2:15:36  6:26         
  715     07:28:30 Moulton, Heather               CALGARY       AB  CAN      31/37  W25-29   844   33  671   46:24  2:27   6:20  35  773 4:05:21  23.0    5:55  26  614 2:24:32  6:51         
  716     07:28:38 Hickle, Wesley                 EDMONTON      AB  CAN      21/21  M18-24   580   19  684   46:52  2:28   9:16  21  751 3:50:09  24.5    6:47  21  674 2:35:36  7:23         
  717     07:28:51 Van Heerden, Johannes          KAMLOOPS      BC  CAN      58/62  M25-29   655   60  776   57:41  3:03   9:12  59  753 3:51:53  24.3    5:05  51  618 2:25:02  6:53         
  718     07:29:49 Clark, Keri                    ANCHORAGE     AK  USA       5/10  W55-59   575    6  741   50:25  2:40   8:02   5  713 3:39:45  25.7    4:28   5  720 2:47:10  7:56         
  719     07:30:11 Ballance, Rosanne              CALGARY       AB  CAN       6/10  W55-59   572    7  744   50:35  2:40   7:46   7  755 3:52:27  24.3    4:06   4  673 2:35:19  7:22         
  720     07:30:29 Boyd, Patrick                  MEDICINE HAT  AB  CAN      59/62  M25-29   624   48  622   44:43  2:22   8:35  62  769 4:01:15  23.4    4:40  53  650 2:31:18  7:11         
  721     07:32:23 Buehner, Sharon                SAULT STE MAR ON  CAN      21/24  W45-49   888   20  705   47:53  2:32   6:13  22  738 3:45:52  25.0    3:33  22  727 2:48:53  8:01         
  722     07:33:13 Merriott, Chris                DEVON         AB  CAN      22/24  W45-49   889   23  771   55:56  2:57   6:33  21  707 3:38:32  25.8    4:51  20  721 2:47:23  7:56         
  723     07:33:14 Van Tighem, Christopher        EDMONTON      AB  CAN      80/87  M40-44   954   85  774   57:04  3:01   6:48  80  704 3:37:41  25.9    5:08  80  719 2:46:35  7:54         
  724     07:33:53 Kolke, Carla                   BEAUMONT      AB  CAN      39/47  W30-34   860   23  450   40:24  2:08   8:12  38  724 3:41:30  25.5    5:11  43  748 2:58:39  8:28         
  725     07:34:07 Edwards, Lynn                  CALGARY       AB  CAN       7/10  W55-59   564    1  472   40:58  2:10   8:02   6  735 3:45:01  25.1    3:44   6  742 2:56:24  8:22         
  726     07:34:21 Kempin, Ashley                 CALGARY       AB  CAN      40/47  W30-34   855   45  758   53:13  2:49   8:37  41  745 3:48:07  24.7    3:25  40  697 2:41:01  7:38         
  727     07:34:22 Karasch, Heather               CALGARY       AB  CAN      41/47  W30-34   380   44  756   53:12  2:48   8:37  40  743 3:47:22  24.8    4:12  41  698 2:41:02  7:38         
  728     07:35:03 Page, Robert                   CALGARY       AB  CAN      55/57  M50-54   744   18  336   38:23  2:02   5:54  56  723 3:41:06  25.5    8:43  55  752 3:00:59  8:35         
  729     07:35:07 Silva, Antonio                 CALGARY       AB  CAN      81/87  M40-44   960   70  648   45:24  2:24  11:33  83  736 3:45:08  25.1    9:25  77  711 2:43:39  7:46         
  730     07:35:28 Heine, Laura                   FORT MACLEOD  AB  CAN      32/37  W25-29   343    7  101   32:41  1:44   5:01  31  740 3:46:31  24.9    2:05  35  759 3:09:11  8:58         
  731     07:36:12 Hillaby, Tracy                 PONOKA        AB  CAN      58/63  W35-39   472   53  655   45:42  2:25   6:55  55  684 3:33:45  26.4    4:01  58  756 3:05:50  8:49         
  732     07:37:19 Shynkaryk, Michael             LAKE COUNTRY  BC  CAN      60/62  M25-29   632   62  802 1:11:56  3:48   6:19  55  709 3:38:45  25.8    3:36  55  681 2:36:45  7:26         
  733     07:37:34 Wakelin, Al                    OLDS          AB  CAN       9/10  M60-64   828    7  620   44:38  2:21   9:45   7  637 3:27:28  27.2    9:32   9  757 3:06:13  8:50         
  734     07:39:55 Baker, Lesley                  VICTORIA      BC  CAN      30/34  W40-44   885   34  801 1:11:35  3:47   5:53  26  702 3:36:44  26.0    3:17  31  705 2:42:27  7:42         
  735     07:40:18 McInnis, Trevor                CALGARY       AB  CAN      61/62  M25-29   910   54  678   46:33  2:27   7:50  60  759 3:53:49  24.1    3:19  60  726 2:48:49  8:01         
  736     07:40:56 McAllister, Heather            TERRACE       BC  CAN      33/37  W25-29   841   32  669   46:22  2:27   6:32  29  732 3:44:14  25.2    3:10  34  751 3:00:40  8:34         
  737     07:41:18 Maley, Connie                  CALGARY       AB  CAN      42/47  W30-34   859   40  694   47:17  2:30   9:08  42  748 3:49:16  24.6    7:44  42  723 2:47:55  7:58         
  738     07:42:29 Wheeler, Marie                 CALGARY       AB  CAN      23/24  W45-49   895   24  777   58:25  3:05   9:23  23  754 3:52:09  24.3    2:38  19  695 2:39:57  7:35         
  739     07:43:03 Saguez, Andre                  CALGARY       AB  CAN     108/115 M35-39   944                                111                       2:22 106  728 2:49:39  8:03         
  740     07:43:06 Atkinson, Todd                 CALGARY       AB  CAN      57/62  M45-49   973   57  767   54:21  2:52   9:45  59  764 3:55:50  23.9    4:25  55  690 2:38:47  7:32         
  741     07:43:13 Perkin, Lisa                   SAN FRANCISCO CA  USA      31/34  W40-44   487   32  769   55:18  2:55  10:50  30  741 3:46:57  24.9    6:17  33  713 2:43:53  7:46         
  742     07:43:14 Bailey, Jefvray                EDMONTON      AB  CAN      62/62  M25-29   641   61  793 1:04:05  3:23   7:36  58  747 3:49:03  24.6    3:51  57  688 2:38:42  7:32         
  743     07:43:35 Bergson, Perry                 BRANDON       MB  CAN      58/62  M45-49   659   51  656   45:43  2:25  10:09  61  780 4:19:07  21.8    3:27  51  620 2:25:11  6:53         
  744     07:44:35 Findlay, Kimberly              CALGARY       AB  CAN      43/47  W30-34   375   43  723   49:01  2:35   8:44  43  772 4:03:04  23.2    6:37  38  685 2:37:12  7:27         
  745     07:45:25 Hoctor, Jennifer               DENVER        CO  USA      34/37  W25-29   357   36  731   49:29  2:37   6:41  32  762 3:54:40  24.0    4:53  32  732 2:49:44  8:03         
  746     07:45:29 Nord, Debbi                    ALBUQUERQUE   NM  USA      32/34  W40-44   884   33  779   58:52  3:06  10:05  31  757 3:52:45  24.2    4:09  30  693 2:39:39  7:34         
  747     07:45:54 Casson, Susan                  ORANGEVILLE   ON  CAN      15/19  W50-54   560    2  160   34:30  1:49   9:13  16  761 3:54:12  24.1    3:56  16  754 3:04:05  8:44         
  748     07:46:30 Lee, John                      WEST VANCOUVE BC  CAN      56/57  M50-54   783   26  432   40:02  2:07  11:58  54  720 3:40:42  25.6    8:01  56  755 3:05:49  8:49         
  749     07:47:14 Colliver, Raymond              CALGARY       AB  CAN       1/1   M75-79   834    1  751   52:37  2:47   8:56   1  733 3:44:26  25.1    5:21   1  740 2:55:56  8:21         
  750     07:48:10 Bistline, Anne                 CHULA VISTA   CA  USA      44/47  W30-34   391   33  573   43:21  2:17   7:44  39  729 3:43:34  25.2    3:18  45  761 3:10:16  9:02         
  751     07:48:41 Davis, Brad                    LETHBRIDGE    AB  CAN      82/87  M40-44   957   82  746   50:50  2:41   8:31  84  744 3:47:40  24.8    4:07  82  746 2:57:36  8:25         
  752     07:49:04 Doucette, Angelica             LETHBRIDGE    AB  CAN      14/16  W18-24   324   13  475   41:07  2:10   9:22  16  776 4:09:26  22.6    7:41  14  702 2:41:30  7:40         
  753     07:49:08 McLanahan, Stuart              HOUSTON       TX  USA      83/87  M40-44   231   79  730   49:26  2:37  16:14  85  752 3:51:24  24.4    8:38  75  707 2:43:28  7:45         
  754     07:49:54 Payne, Keith                   CALGARY       AB  CAN      59/62  M45-49   675   61  789 1:02:35  3:18   7:48  56  727 3:42:51  25.3    3:20  58  738 2:53:22  8:13         
  755     07:50:36 Van Rooyen, Gerhard            REGINA        SK  CAN      26/28  M55-59   814   28  748   51:00  2:42   9:31  29  760 3:53:50  24.1    4:18  27  735 2:51:59  8:10         
  756     07:52:35 Knowles, Jeff                  RED DEER      AB  CAN     109/115 M35-39   118   77  544   42:46  2:16  10:37 102  660 3:30:37  26.8    7:15 111  767 3:21:22  9:33         
  757     07:52:59 Luntley, Jeremy (jerry)        CANMORE       AB  CAN      60/62  M45-49   693   56  762   53:58  2:51  10:15  58  742 3:47:01  24.8    4:34  61  744 2:57:14  8:24         
  758     07:54:59 Boice, Sarah                   KAMLOPS       BC  CAN      15/16  W18-24   321    3   66   31:11  1:39   7:20  15  750 3:50:06  24.5    5:13  15  765 3:21:11  9:33         
  759     07:54:59 Whyte, Chris                   KAMLOOPS      BC  CAN      16/19  W50-54   545    3  165   34:50  1:50   6:37  12  701 3:36:00  26.1   16:21  17  766 3:21:11  9:33         
  760     07:56:20 Teller, Ralph                  FALL CITY     WA  USA      27/28  M55-59   813   19  532   42:32  2:15   6:11  28  696 3:35:40  26.2    6:19  28  770 3:25:41  9:45         
  761     07:58:35 Hatch, Chris                   SLAVE LAKE    AB  CAN     110/115 M35-39   182   79  556   43:04  2:16  10:14 109  721 3:40:45  25.5    5:44 110  764 3:18:50  9:26         
  762     08:01:10 Wrona, Kristen                 GOLDEN        CO  USA      33/34  W40-44   498   23  608   44:27  2:21  10:41  33  779 4:16:06  22.0    6:21  32  709 2:43:37  7:46         
  763     08:03:33 Monsen, Pamela                 EDMONTON      AB  CAN      59/63  W35-39   436   62  787 1:02:16  3:17   7:49  60  756 3:52:37  24.2    4:48  56  741 2:56:05  8:21         
  764     08:04:25 Mah, Paul                      CALGARY       AB  CAN      61/62  M45-49   689   60  785 1:01:23  3:14   8:54  60  765 3:55:53  23.9    1:36  60  743 2:56:41  8:23         
  765     08:10:49 Horsman, Shaun                 REGINA        SK  CAN     111/115 M35-39   176   56  414   39:43  2:06   8:28 110  774 4:05:49  22.9    4:45 108  762 3:12:06  9:07         
  766     08:12:12 Farrens, Wendy                 TUSCALOOSA    AL  USA      35/37  W25-29   336   17  372   39:00  2:04   6:01  36  781 4:29:03  21.0    5:09  33  737 2:53:01  8:12         
  767     08:14:07 Parker, Kim                    CALGARY       AB  CAN      36/37  W25-29   350   24  525   42:22  2:14   8:21  33  766 3:56:13  23.9    3:21  36  769 3:23:52  9:40         
  768     08:23:18 Caldwell, Jocelyne             CALGARY       AB  CAN      17/19  W50-54   542   19  786 1:01:49  3:16  10:29  18  778 4:15:35  22.1    5:45  15  731 2:49:42  8:03         
  769     08:23:59 Sheppard, Kathleen             CHESTERMERE   AB  CAN      18/19  W50-54   897   12  682   46:47  2:28   8:11  17  771 4:01:58  23.3    4:37  18  768 3:22:28  9:36         
  770     08:25:51 Malanowich, Nicole             WARMAN        SK  CAN      45/47  W30-34   369   47  788 1:02:27  3:18   7:26  45  777 4:11:08  22.5    2:51  44  753 3:02:00  8:38         
  771 DNF          Williams, Trev                 CALGARY       AB  CAN      16/20  MPRO      19   20   68   31:16  1:39   2:23  16   18 2:26:10  38.6    2:08                                
  772 DNF          Skrypnek, Mike                 CALGARY       AB  CAN      84/87  M40-44   236   20  201   35:44  1:53   5:28  31  211 2:53:44  32.5    2:19                                
  773 DNF          Nasr, Doreen                                               1/1   No Age  1034    1  299   37:33  1:59   3:43   1  253 2:56:49  31.9    2:25                                
  774 DNF          Richer, Teresa                 RED DEER      AB  CAN      60/63  W35-39   473   16  256   36:50  1:57   4:20   7  201 2:52:44  32.7    1:13                                
  775 DNF          Overton, Lisa                  SEATTLE       WA  USA      61/63  W35-39   435   17  263   37:01  1:57   7:01   3  169 2:50:02  33.2    2:20                                
  776 DNF          Cooper, Vaughn                 VERMILION     AB  CAN      28/28  M55-59   788   10  401   39:28  2:05   8:20  22  532 3:17:17  28.6   12:11                                
  777 DNF          Mykytchuk, John                REGINA        SK  CAN      10/10  M60-64   822    3  505   41:54  2:13   6:27   8  646 3:28:56  27.0    3:29                                
  778 DNF          Fitzpatrick, Rosanne           ORTON         ON  CAN      24/24  W45-49   529    1  105   32:55  1:44   6:25                                                               
  779 DNF          Tichelaar, Paul                EDMONTON      AB  CAN      17/20  MPRO      25    8   11   24:39  1:18   2:09   4    4 2:15:35  41.6                                        
  780 DNF          Robinson, Darren               KANANASKIS    AB  CAN      85/87  M40-44   237   13  143   34:06  1:48   5:18  15  105 2:41:59  34.8                                        
  781 DNF          Smith, Chris                   CANMORE       AB  CAN      86/87  M40-44   315   21  202   35:47  1:53   6:03  35  239 2:56:15  32.0                                        
  782 DNF          Olacke, Becky                  VICTORIA      BC  CAN      16/16  W18-24  1017    4  111   33:02  1:45   4:14   5  419 3:08:02  30.0                                        
  783 DNF          Werbicki, Craig                CALGARY       AB  CAN      75/76  M30-34   103   68  593   44:06  2:20   6:32  74  699 3:35:54  26.1                                        
  784 DNF          Francis, Jemani                GUNGAHLIN     ACT AUS      18/20  MPRO      24    7    7   23:36  1:15   2:08                                                               
  785 DNF          Poulsen, Brent                 ORILLIA       ON  CAN      19/20  MPRO      26   12   16   24:45  1:19   1:59                                                               
  786 DNF          Clode, Peter                   CARDIFF       CA  USA      20/20  MPRO    1002   10   13   24:44  1:19   2:38                                                               
  787 DNF          Britton, Jason                 EDMONTON      AB  CAN      76/76  M30-34    51    2   33   28:12  1:30   2:16                                                               
  788 DNF          Chalifour, Jean-Francois       PREVOST       QC  CAN     112/115 M35-39   130   49  358   38:46  2:03   4:09                                                               
  789 DNF          Doulias, Nick                  REGINA        SK  CAN     113/115 M35-39   198   57  423   39:55  2:06   5:32                                                               
  790 DNF          Martin, Brian                  CALGARY       AB  CAN     114/115 M35-39   999  107  745   50:45  2:41   6:14                                                               
  791 DNF          Piquette, Christine            CALGARY       AB  CAN      37/37  W25-29   358   28  611   44:31  2:21   4:07                                                               
  792 DNF          Allen, Jill                    REDWOOD MEADO AB  CAN      19/19  W50-54   556   11  673   46:28  2:27  11:49                                                               
  793 DNF          Quesnel, John                  PRINCE GEORGE BC  CAN     115/115 M35-39   177  114  803 1:14:21  3:55  13:14                                                               
  794 DNF          Green, Laura                   SPRUCE GROVE  AB  CAN       8/10  W55-59   569   10  798 1:07:24  3:33   8:45                                                               
  795 DNF          Kelly-Wardle, Colleen          WINNIPEG      MB  CAN      62/63  W35-39   416   63  799 1:09:12  3:39   9:02                                                               
  796 DNF          Alaluf, Yamile                 MEXICO            MEX      46/47  W30-34   868   26  487   41:28  2:11  12:26                                                               
  797 DNF          Miller, Douglas                DAUPHIN       MB  CAN      87/87  M40-44   972   71  649   45:29  2:24   9:22                                                               
  798 DNF          Scheirick, Paul                CALGARY       AB  CAN      62/62  M45-49   676   58  775   57:16  3:01  14:36                                                               
  799 DNF          Howe, Wayne                    SASKATOON     SK  CAN       3/3   M65-69   831    3  794 1:05:22  3:27   8:51                                                               
  800 DNF          Allen, Robert                  REDWOOD MEADO AB  CAN      57/57  M50-54   778   56  796 1:06:56  3:32   7:38                                                               
  801 DNF          Lockhart, Sean                 RED DEER      AB  CAN      47/47  W30-34   857   41  701   47:44  2:31  12:30                                                               
  802 DNF          Burge, Natalie                 RED DEER COUN AB  CAN      34/34  W40-44   879   31  766   54:18  2:52   7:57                                                               
  803 DNF          Heather, Schmidt               EDMONTON      AB  CAN      63/63  W35-39   874   61  768   54:36  2:53   9:18                                                               
  804 DNF          Baker, Linda                   BONAIRE           ANT       9/10  W55-59   900    8  792 1:04:03  3:23   9:15                                                               
  805 DNF          Smith, Bev                     HILLCREST     AB  CAN      10/10  W55-59   901    9  797 1:07:07  3:32   8:16